<?xml version="1.0" encoding="UTF-8" standalone="no" ?>
<gpx xmlns="http://www.topografix.com/GPX/1/1" xmlns:xsi="http://www.w3.org/2001/XMLSchema-instance" xsi:schemaLocation="http://www.topografix.com/GPX/1/1 http://www.topografix.com/GPX/1/1/gpx.xsd" version="1.1" creator="VisuGPX - https://www.visugpx.com">
  <metadata>
    <name>Balade forestière à Arbon</name>
    <desc><![CDATA[Joli balade bucolique en forêt.
Praticable toute l'année.
En période de chasse plutôt l'après midi.]]></desc>
  </metadata>
  <trk>
    <name><![CDATA[Balade forestière à Arbon_1]]></name>
    <trkseg>
      <trkpt lat="43.00326" lon="0.7446">
        <ele>615.3</ele>
        <time>2023-03-17T12:59:59.000Z</time>
      </trkpt>
      <trkpt lat="43.00335" lon="0.7446">
        <ele>615.2</ele>
        <time>2023-03-17T13:00:07.000Z</time>
      </trkpt>
      <trkpt lat="43.00344" lon="0.74466">
        <ele>613.8</ele>
        <time>2023-03-17T13:00:15.000Z</time>
      </trkpt>
      <trkpt lat="43.00351" lon="0.74475">
        <ele>612.5</ele>
        <time>2023-03-17T13:00:20.000Z</time>
      </trkpt>
      <trkpt lat="43.00358" lon="0.74482">
        <ele>611.1</ele>
        <time>2023-03-17T13:00:27.000Z</time>
      </trkpt>
      <trkpt lat="43.00367" lon="0.74488">
        <ele>609.6</ele>
        <time>2023-03-17T13:00:34.000Z</time>
      </trkpt>
      <trkpt lat="43.00376" lon="0.74491">
        <ele>608.2</ele>
        <time>2023-03-17T13:00:40.000Z</time>
      </trkpt>
      <trkpt lat="43.00385" lon="0.74497">
        <ele>606.7</ele>
        <time>2023-03-17T13:00:51.000Z</time>
      </trkpt>
      <trkpt lat="43.00394" lon="0.745">
        <ele>604.9</ele>
        <time>2023-03-17T13:00:58.000Z</time>
      </trkpt>
      <trkpt lat="43.00403" lon="0.74494">
        <ele>603.4</ele>
        <time>2023-03-17T13:01:08.000Z</time>
      </trkpt>
      <trkpt lat="43.00412" lon="0.74489">
        <ele>601.8</ele>
        <time>2023-03-17T13:01:14.000Z</time>
      </trkpt>
      <trkpt lat="43.00421" lon="0.74486">
        <ele>600</ele>
        <time>2023-03-17T13:01:22.000Z</time>
      </trkpt>
      <trkpt lat="43.00431" lon="0.74485">
        <ele>597.9</ele>
        <time>2023-03-17T13:01:30.000Z</time>
      </trkpt>
      <trkpt lat="43.0044" lon="0.74481">
        <ele>596.2</ele>
        <time>2023-03-17T13:01:38.000Z</time>
      </trkpt>
      <trkpt lat="43.00449" lon="0.74476">
        <ele>595</ele>
        <time>2023-03-17T13:01:45.000Z</time>
      </trkpt>
      <trkpt lat="43.00457" lon="0.74468">
        <ele>594.7</ele>
        <time>2023-03-17T13:01:50.000Z</time>
      </trkpt>
      <trkpt lat="43.00465" lon="0.74461">
        <ele>594.4</ele>
        <time>2023-03-17T13:01:57.000Z</time>
      </trkpt>
      <trkpt lat="43.00474" lon="0.74455">
        <ele>593.5</ele>
        <time>2023-03-17T13:02:04.000Z</time>
      </trkpt>
      <trkpt lat="43.00483" lon="0.7445">
        <ele>592.3</ele>
        <time>2023-03-17T13:02:10.000Z</time>
      </trkpt>
      <trkpt lat="43.00492" lon="0.74446">
        <ele>591.2</ele>
        <time>2023-03-17T13:02:18.000Z</time>
      </trkpt>
      <trkpt lat="43.00501" lon="0.74441">
        <ele>590.2</ele>
        <time>2023-03-17T13:02:26.000Z</time>
      </trkpt>
      <trkpt lat="43.00509" lon="0.74434">
        <ele>589.3</ele>
        <time>2023-03-17T13:02:34.000Z</time>
      </trkpt>
      <trkpt lat="43.00517" lon="0.74428">
        <ele>588.1</ele>
        <time>2023-03-17T13:02:41.000Z</time>
      </trkpt>
      <trkpt lat="43.00527" lon="0.74426">
        <ele>586.2</ele>
        <time>2023-03-17T13:02:48.000Z</time>
      </trkpt>
      <trkpt lat="43.00536" lon="0.74427">
        <ele>584.3</ele>
        <time>2023-03-17T13:02:54.000Z</time>
      </trkpt>
      <trkpt lat="43.00546" lon="0.74425">
        <ele>582.8</ele>
        <time>2023-03-17T13:03:02.000Z</time>
      </trkpt>
      <trkpt lat="43.00555" lon="0.74427">
        <ele>581</ele>
        <time>2023-03-17T13:03:07.000Z</time>
      </trkpt>
      <trkpt lat="43.00563" lon="0.74433">
        <ele>578.8</ele>
        <time>2023-03-17T13:03:14.000Z</time>
      </trkpt>
      <trkpt lat="43.00573" lon="0.74436">
        <ele>576.5</ele>
        <time>2023-03-17T13:03:22.000Z</time>
      </trkpt>
      <trkpt lat="43.00582" lon="0.74443">
        <ele>574.3</ele>
        <time>2023-03-17T13:03:30.000Z</time>
      </trkpt>
      <trkpt lat="43.00589" lon="0.74451">
        <ele>572</ele>
        <time>2023-03-17T13:03:37.000Z</time>
      </trkpt>
      <trkpt lat="43.00596" lon="0.74461">
        <ele>569.5</ele>
        <time>2023-03-17T13:03:44.000Z</time>
      </trkpt>
      <trkpt lat="43.00598" lon="0.74474">
        <ele>567.2</ele>
        <time>2023-03-17T13:03:52.000Z</time>
      </trkpt>
      <trkpt lat="43.00594" lon="0.74486">
        <ele>566.1</ele>
        <time>2023-03-17T13:03:57.000Z</time>
      </trkpt>
      <trkpt lat="43.00591" lon="0.74498">
        <ele>564.9</ele>
        <time>2023-03-17T13:04:05.000Z</time>
      </trkpt>
      <trkpt lat="43.00587" lon="0.7451">
        <ele>563.9</ele>
        <time>2023-03-17T13:04:12.000Z</time>
      </trkpt>
      <trkpt lat="43.00584" lon="0.74522">
        <ele>562.6</ele>
        <time>2023-03-17T13:04:21.000Z</time>
      </trkpt>
      <trkpt lat="43.00593" lon="0.74528">
        <ele>560.1</ele>
        <time>2023-03-17T13:04:35.000Z</time>
      </trkpt>
      <trkpt lat="43.00602" lon="0.74533">
        <ele>557.7</ele>
        <time>2023-03-17T13:04:45.000Z</time>
      </trkpt>
      <trkpt lat="43.0061" lon="0.7454">
        <ele>555.1</ele>
        <time>2023-03-17T13:04:56.000Z</time>
      </trkpt>
      <trkpt lat="43.00619" lon="0.74542">
        <ele>553.6</ele>
        <time>2023-03-17T13:05:06.000Z</time>
      </trkpt>
      <trkpt lat="43.00629" lon="0.74537">
        <ele>553.4</ele>
        <time>2023-03-17T13:05:14.000Z</time>
      </trkpt>
      <trkpt lat="43.00638" lon="0.74533">
        <ele>553.3</ele>
        <time>2023-03-17T13:05:23.000Z</time>
      </trkpt>
      <trkpt lat="43.00647" lon="0.74529">
        <ele>553.5</ele>
        <time>2023-03-17T13:05:31.000Z</time>
      </trkpt>
      <trkpt lat="43.00655" lon="0.74523">
        <ele>554.2</ele>
        <time>2023-03-17T13:05:39.000Z</time>
      </trkpt>
      <trkpt lat="43.00664" lon="0.74524">
        <ele>553.6</ele>
        <time>2023-03-17T13:05:49.000Z</time>
      </trkpt>
      <trkpt lat="43.00673" lon="0.74525">
        <ele>554</ele>
        <time>2023-03-17T13:06:00.000Z</time>
      </trkpt>
      <trkpt lat="43.00683" lon="0.74528">
        <ele>554.1</ele>
        <time>2023-03-17T13:06:10.000Z</time>
      </trkpt>
      <trkpt lat="43.00687" lon="0.74539">
        <ele>552.5</ele>
        <time>2023-03-17T13:06:23.000Z</time>
      </trkpt>
      <trkpt lat="43.00696" lon="0.74534">
        <ele>554.2</ele>
        <time>2023-03-17T13:06:34.000Z</time>
      </trkpt>
      <trkpt lat="43.00705" lon="0.74537">
        <ele>555.2</ele>
        <time>2023-03-17T13:06:42.000Z</time>
      </trkpt>
      <trkpt lat="43.00713" lon="0.74544">
        <ele>555.1</ele>
        <time>2023-03-17T13:06:49.000Z</time>
      </trkpt>
      <trkpt lat="43.00722" lon="0.7455">
        <ele>555.1</ele>
        <time>2023-03-17T13:06:58.000Z</time>
      </trkpt>
      <trkpt lat="43.0073" lon="0.74556">
        <ele>555.3</ele>
        <time>2023-03-17T13:07:06.000Z</time>
      </trkpt>
      <trkpt lat="43.00739" lon="0.74563">
        <ele>555</ele>
        <time>2023-03-17T13:07:15.000Z</time>
      </trkpt>
      <trkpt lat="43.00748" lon="0.74565">
        <ele>556.3</ele>
        <time>2023-03-17T13:07:23.000Z</time>
      </trkpt>
      <trkpt lat="43.00757" lon="0.7457">
        <ele>556.5</ele>
        <time>2023-03-17T13:07:32.000Z</time>
      </trkpt>
      <trkpt lat="43.00766" lon="0.74567">
        <ele>558.9</ele>
        <time>2023-03-17T13:07:41.000Z</time>
      </trkpt>
      <trkpt lat="43.00776" lon="0.74566">
        <ele>561.1</ele>
        <time>2023-03-17T13:07:50.000Z</time>
      </trkpt>
      <trkpt lat="43.00785" lon="0.74566">
        <ele>562.7</ele>
        <time>2023-03-17T13:08:00.000Z</time>
      </trkpt>
      <trkpt lat="43.00795" lon="0.74564">
        <ele>564.9</ele>
        <time>2023-03-17T13:08:09.000Z</time>
      </trkpt>
      <trkpt lat="43.00804" lon="0.74561">
        <ele>567.5</ele>
        <time>2023-03-17T13:08:18.000Z</time>
      </trkpt>
      <trkpt lat="43.00814" lon="0.74558">
        <ele>569.6</ele>
        <time>2023-03-17T13:08:29.000Z</time>
      </trkpt>
      <trkpt lat="43.00823" lon="0.74552">
        <ele>572.2</ele>
        <time>2023-03-17T13:08:40.000Z</time>
      </trkpt>
      <trkpt lat="43.00831" lon="0.74548">
        <ele>574.8</ele>
        <time>2023-03-17T13:08:48.000Z</time>
      </trkpt>
      <trkpt lat="43.0084" lon="0.74542">
        <ele>577</ele>
        <time>2023-03-17T13:09:03.000Z</time>
      </trkpt>
      <trkpt lat="43.00848" lon="0.74534">
        <ele>579.6</ele>
        <time>2023-03-17T13:09:14.000Z</time>
      </trkpt>
      <trkpt lat="43.00856" lon="0.74527">
        <ele>581.8</ele>
        <time>2023-03-17T13:09:23.000Z</time>
      </trkpt>
      <trkpt lat="43.00865" lon="0.74522">
        <ele>583.6</ele>
        <time>2023-03-17T13:09:33.000Z</time>
      </trkpt>
      <trkpt lat="43.00874" lon="0.74519">
        <ele>584.6</ele>
        <time>2023-03-17T13:09:43.000Z</time>
      </trkpt>
      <trkpt lat="43.00883" lon="0.74515">
        <ele>585.6</ele>
        <time>2023-03-17T13:09:52.000Z</time>
      </trkpt>
      <trkpt lat="43.00893" lon="0.74511">
        <ele>586.7</ele>
        <time>2023-03-17T13:10:03.000Z</time>
      </trkpt>
      <trkpt lat="43.00902" lon="0.74506">
        <ele>587.4</ele>
        <time>2023-03-17T13:10:13.000Z</time>
      </trkpt>
      <trkpt lat="43.00907" lon="0.74495">
        <ele>589.9</ele>
        <time>2023-03-17T13:10:28.000Z</time>
      </trkpt>
      <trkpt lat="43.00911" lon="0.74483">
        <ele>592.6</ele>
        <time>2023-03-17T13:10:42.000Z</time>
      </trkpt>
      <trkpt lat="43.00918" lon="0.74473">
        <ele>594.7</ele>
        <time>2023-03-17T13:10:50.000Z</time>
      </trkpt>
      <trkpt lat="43.00923" lon="0.74462">
        <ele>596.9</ele>
        <time>2023-03-17T13:10:59.000Z</time>
      </trkpt>
      <trkpt lat="43.00931" lon="0.74453">
        <ele>598.3</ele>
        <time>2023-03-17T13:11:10.000Z</time>
      </trkpt>
      <trkpt lat="43.0094" lon="0.74447">
        <ele>598.8</ele>
        <time>2023-03-17T13:11:18.000Z</time>
      </trkpt>
      <trkpt lat="43.00949" lon="0.74443">
        <ele>598.8</ele>
        <time>2023-03-17T13:11:25.000Z</time>
      </trkpt>
      <trkpt lat="43.00958" lon="0.7444">
        <ele>598.4</ele>
        <time>2023-03-17T13:11:32.000Z</time>
      </trkpt>
      <trkpt lat="43.00966" lon="0.74434">
        <ele>599</ele>
        <time>2023-03-17T13:11:41.000Z</time>
      </trkpt>
      <trkpt lat="43.00973" lon="0.74427">
        <ele>599.9</ele>
        <time>2023-03-17T13:11:50.000Z</time>
      </trkpt>
      <trkpt lat="43.00981" lon="0.7442">
        <ele>600.8</ele>
        <time>2023-03-17T13:11:59.000Z</time>
      </trkpt>
      <trkpt lat="43.00988" lon="0.74411">
        <ele>602.1</ele>
        <time>2023-03-17T13:12:11.000Z</time>
      </trkpt>
      <trkpt lat="43.00994" lon="0.74401">
        <ele>603.8</ele>
        <time>2023-03-17T13:12:19.000Z</time>
      </trkpt>
      <trkpt lat="43.01002" lon="0.74393">
        <ele>604.7</ele>
        <time>2023-03-17T13:12:27.000Z</time>
      </trkpt>
      <trkpt lat="43.01008" lon="0.74385">
        <ele>606</ele>
        <time>2023-03-17T13:12:36.000Z</time>
      </trkpt>
      <trkpt lat="43.01016" lon="0.74378">
        <ele>606.9</ele>
        <time>2023-03-17T13:12:46.000Z</time>
      </trkpt>
      <trkpt lat="43.01022" lon="0.74368">
        <ele>608.9</ele>
        <time>2023-03-17T13:12:56.000Z</time>
      </trkpt>
      <trkpt lat="43.01029" lon="0.74358">
        <ele>610.7</ele>
        <time>2023-03-17T13:13:06.000Z</time>
      </trkpt>
      <trkpt lat="43.01035" lon="0.74349">
        <ele>612.5</ele>
        <time>2023-03-17T13:13:15.000Z</time>
      </trkpt>
      <trkpt lat="43.01044" lon="0.74342">
        <ele>613.2</ele>
        <time>2023-03-17T13:13:23.000Z</time>
      </trkpt>
      <trkpt lat="43.01052" lon="0.74336">
        <ele>613.9</ele>
        <time>2023-03-17T13:13:34.000Z</time>
      </trkpt>
      <trkpt lat="43.0106" lon="0.7433">
        <ele>614.5</ele>
        <time>2023-03-17T13:13:43.000Z</time>
      </trkpt>
      <trkpt lat="43.01069" lon="0.74325">
        <ele>614.6</ele>
        <time>2023-03-17T13:13:51.000Z</time>
      </trkpt>
      <trkpt lat="43.0108" lon="0.74323">
        <ele>613.8</ele>
        <time>2023-03-17T13:13:59.000Z</time>
      </trkpt>
      <trkpt lat="43.01089" lon="0.74321">
        <ele>612.9</ele>
        <time>2023-03-17T13:14:05.000Z</time>
      </trkpt>
      <trkpt lat="43.01098" lon="0.74317">
        <ele>612.5</ele>
        <time>2023-03-17T13:14:12.000Z</time>
      </trkpt>
      <trkpt lat="43.01106" lon="0.74311">
        <ele>613.2</ele>
        <time>2023-03-17T13:14:19.000Z</time>
      </trkpt>
      <trkpt lat="43.01114" lon="0.74305">
        <ele>613.6</ele>
        <time>2023-03-17T13:14:27.000Z</time>
      </trkpt>
      <trkpt lat="43.01122" lon="0.743">
        <ele>613.8</ele>
        <time>2023-03-17T13:14:35.000Z</time>
      </trkpt>
      <trkpt lat="43.01131" lon="0.74294">
        <ele>613.5</ele>
        <time>2023-03-17T13:14:43.000Z</time>
      </trkpt>
      <trkpt lat="43.0114" lon="0.74288">
        <ele>613.6</ele>
        <time>2023-03-17T13:14:52.000Z</time>
      </trkpt>
      <trkpt lat="43.01148" lon="0.74282">
        <ele>613.5</ele>
        <time>2023-03-17T13:15:00.000Z</time>
      </trkpt>
      <trkpt lat="43.01155" lon="0.74274">
        <ele>614.3</ele>
        <time>2023-03-17T13:15:07.000Z</time>
      </trkpt>
      <trkpt lat="43.01161" lon="0.74265">
        <ele>615.6</ele>
        <time>2023-03-17T13:15:16.000Z</time>
      </trkpt>
      <trkpt lat="43.01169" lon="0.74258">
        <ele>615.9</ele>
        <time>2023-03-17T13:15:26.000Z</time>
      </trkpt>
      <trkpt lat="43.01176" lon="0.7425">
        <ele>616.3</ele>
        <time>2023-03-17T13:15:37.000Z</time>
      </trkpt>
      <trkpt lat="43.0118" lon="0.74238">
        <ele>618.1</ele>
        <time>2023-03-17T13:15:48.000Z</time>
      </trkpt>
      <trkpt lat="43.01185" lon="0.74227">
        <ele>619.6</ele>
        <time>2023-03-17T13:15:58.000Z</time>
      </trkpt>
      <trkpt lat="43.0119" lon="0.74214">
        <ele>621.5</ele>
        <time>2023-03-17T13:16:06.000Z</time>
      </trkpt>
      <trkpt lat="43.01191" lon="0.74202">
        <ele>624.1</ele>
        <time>2023-03-17T13:16:15.000Z</time>
      </trkpt>
      <trkpt lat="43.01194" lon="0.7419">
        <ele>626.2</ele>
        <time>2023-03-17T13:16:27.000Z</time>
      </trkpt>
      <trkpt lat="43.01193" lon="0.74177">
        <ele>629</ele>
        <time>2023-03-17T13:16:39.000Z</time>
      </trkpt>
      <trkpt lat="43.01193" lon="0.74164">
        <ele>631.6</ele>
        <time>2023-03-17T13:16:50.000Z</time>
      </trkpt>
      <trkpt lat="43.01192" lon="0.74152">
        <ele>633.8</ele>
        <time>2023-03-17T13:17:00.000Z</time>
      </trkpt>
      <trkpt lat="43.0119" lon="0.74139">
        <ele>636.2</ele>
        <time>2023-03-17T13:17:08.000Z</time>
      </trkpt>
      <trkpt lat="43.01188" lon="0.74126">
        <ele>638</ele>
        <time>2023-03-17T13:17:19.000Z</time>
      </trkpt>
      <trkpt lat="43.01188" lon="0.74114">
        <ele>639.3</ele>
        <time>2023-03-17T13:17:29.000Z</time>
      </trkpt>
      <trkpt lat="43.01187" lon="0.74101">
        <ele>640.9</ele>
        <time>2023-03-17T13:17:41.000Z</time>
      </trkpt>
      <trkpt lat="43.01187" lon="0.74088">
        <ele>642.5</ele>
        <time>2023-03-17T13:17:52.000Z</time>
      </trkpt>
      <trkpt lat="43.01185" lon="0.74075">
        <ele>644</ele>
        <time>2023-03-17T13:18:01.000Z</time>
      </trkpt>
      <trkpt lat="43.01184" lon="0.74062">
        <ele>645</ele>
        <time>2023-03-17T13:18:11.000Z</time>
      </trkpt>
      <trkpt lat="43.01183" lon="0.7405">
        <ele>645.8</ele>
        <time>2023-03-17T13:18:19.000Z</time>
      </trkpt>
      <trkpt lat="43.01183" lon="0.74036">
        <ele>646.2</ele>
        <time>2023-03-17T13:18:26.000Z</time>
      </trkpt>
      <trkpt lat="43.01185" lon="0.74023">
        <ele>645.9</ele>
        <time>2023-03-17T13:18:32.000Z</time>
      </trkpt>
      <trkpt lat="43.01188" lon="0.74011">
        <ele>645.3</ele>
        <time>2023-03-17T13:18:39.000Z</time>
      </trkpt>
      <trkpt lat="43.01189" lon="0.73997">
        <ele>645</ele>
        <time>2023-03-17T13:18:46.000Z</time>
      </trkpt>
      <trkpt lat="43.01188" lon="0.73984">
        <ele>644.6</ele>
        <time>2023-03-17T13:18:53.000Z</time>
      </trkpt>
      <trkpt lat="43.01185" lon="0.73972">
        <ele>644.6</ele>
        <time>2023-03-17T13:19:01.000Z</time>
      </trkpt>
      <trkpt lat="43.01181" lon="0.7396">
        <ele>644.9</ele>
        <time>2023-03-17T13:19:09.000Z</time>
      </trkpt>
      <trkpt lat="43.01178" lon="0.73947">
        <ele>645</ele>
        <time>2023-03-17T13:19:18.000Z</time>
      </trkpt>
      <trkpt lat="43.01173" lon="0.73936">
        <ele>645.2</ele>
        <time>2023-03-17T13:19:25.000Z</time>
      </trkpt>
      <trkpt lat="43.01168" lon="0.73924">
        <ele>645.3</ele>
        <time>2023-03-17T13:19:33.000Z</time>
      </trkpt>
      <trkpt lat="43.01166" lon="0.73912">
        <ele>644.9</ele>
        <time>2023-03-17T13:19:40.000Z</time>
      </trkpt>
      <trkpt lat="43.01162" lon="0.739">
        <ele>645.1</ele>
        <time>2023-03-17T13:19:48.000Z</time>
      </trkpt>
      <trkpt lat="43.0116" lon="0.73887">
        <ele>645</ele>
        <time>2023-03-17T13:19:57.000Z</time>
      </trkpt>
      <trkpt lat="43.01159" lon="0.73875">
        <ele>645.5</ele>
        <time>2023-03-17T13:20:06.000Z</time>
      </trkpt>
      <trkpt lat="43.01159" lon="0.73862">
        <ele>645.8</ele>
        <time>2023-03-17T13:20:14.000Z</time>
      </trkpt>
      <trkpt lat="43.01158" lon="0.73849">
        <ele>646.6</ele>
        <time>2023-03-17T13:20:27.000Z</time>
      </trkpt>
      <trkpt lat="43.01153" lon="0.73839">
        <ele>647.7</ele>
        <time>2023-03-17T13:20:43.000Z</time>
      </trkpt>
      <trkpt lat="43.01151" lon="0.73827">
        <ele>648.9</ele>
        <time>2023-03-17T13:20:53.000Z</time>
      </trkpt>
      <trkpt lat="43.01155" lon="0.73814">
        <ele>650.3</ele>
        <time>2023-03-17T13:21:02.000Z</time>
      </trkpt>
      <trkpt lat="43.01156" lon="0.73802">
        <ele>652</ele>
        <time>2023-03-17T13:21:16.000Z</time>
      </trkpt>
      <trkpt lat="43.01156" lon="0.73789">
        <ele>654</ele>
        <time>2023-03-17T13:21:30.000Z</time>
      </trkpt>
      <trkpt lat="43.01152" lon="0.73778">
        <ele>656.1</ele>
        <time>2023-03-17T13:21:39.000Z</time>
      </trkpt>
      <trkpt lat="43.01144" lon="0.7377">
        <ele>657.8</ele>
        <time>2023-03-17T13:21:50.000Z</time>
      </trkpt>
      <trkpt lat="43.01138" lon="0.73761">
        <ele>659.5</ele>
        <time>2023-03-17T13:22:01.000Z</time>
      </trkpt>
      <trkpt lat="43.01133" lon="0.7375">
        <ele>661.2</ele>
        <time>2023-03-17T13:22:13.000Z</time>
      </trkpt>
      <trkpt lat="43.0113" lon="0.73738">
        <ele>663.2</ele>
        <time>2023-03-17T13:22:24.000Z</time>
      </trkpt>
      <trkpt lat="43.01128" lon="0.73725">
        <ele>665.3</ele>
        <time>2023-03-17T13:22:34.000Z</time>
      </trkpt>
      <trkpt lat="43.01127" lon="0.73712">
        <ele>667.1</ele>
        <time>2023-03-17T13:22:43.000Z</time>
      </trkpt>
      <trkpt lat="43.01129" lon="0.73699">
        <ele>668.5</ele>
        <time>2023-03-17T13:22:51.000Z</time>
      </trkpt>
      <trkpt lat="43.01125" lon="0.73687">
        <ele>670.1</ele>
        <time>2023-03-17T13:23:02.000Z</time>
      </trkpt>
      <trkpt lat="43.01122" lon="0.73675">
        <ele>671.6</ele>
        <time>2023-03-17T13:23:10.000Z</time>
      </trkpt>
      <trkpt lat="43.01116" lon="0.73665">
        <ele>673.4</ele>
        <time>2023-03-17T13:23:19.000Z</time>
      </trkpt>
      <trkpt lat="43.0111" lon="0.73656">
        <ele>675</ele>
        <time>2023-03-17T13:23:26.000Z</time>
      </trkpt>
      <trkpt lat="43.01103" lon="0.73647">
        <ele>676.9</ele>
        <time>2023-03-17T13:23:34.000Z</time>
      </trkpt>
      <trkpt lat="43.01095" lon="0.7364">
        <ele>678.8</ele>
        <time>2023-03-17T13:23:43.000Z</time>
      </trkpt>
      <trkpt lat="43.01086" lon="0.73639">
        <ele>680.6</ele>
        <time>2023-03-17T13:23:51.000Z</time>
      </trkpt>
      <trkpt lat="43.01076" lon="0.73638">
        <ele>682.7</ele>
        <time>2023-03-17T13:24:03.000Z</time>
      </trkpt>
      <trkpt lat="43.01066" lon="0.73639">
        <ele>684.7</ele>
        <time>2023-03-17T13:24:15.000Z</time>
      </trkpt>
      <trkpt lat="43.01058" lon="0.73632">
        <ele>686.9</ele>
        <time>2023-03-17T13:24:25.000Z</time>
      </trkpt>
      <trkpt lat="43.01054" lon="0.73621">
        <ele>688.8</ele>
        <time>2023-03-17T13:24:33.000Z</time>
      </trkpt>
      <trkpt lat="43.01049" lon="0.7361">
        <ele>690.6</ele>
        <time>2023-03-17T13:24:42.000Z</time>
      </trkpt>
      <trkpt lat="43.01045" lon="0.73598">
        <ele>692.2</ele>
        <time>2023-03-17T13:24:51.000Z</time>
      </trkpt>
      <trkpt lat="43.01042" lon="0.73585">
        <ele>693.3</ele>
        <time>2023-03-17T13:24:58.000Z</time>
      </trkpt>
      <trkpt lat="43.01038" lon="0.73573">
        <ele>694.5</ele>
        <time>2023-03-17T13:25:07.000Z</time>
      </trkpt>
      <trkpt lat="43.01038" lon="0.7356">
        <ele>694.8</ele>
        <time>2023-03-17T13:25:14.000Z</time>
      </trkpt>
      <trkpt lat="43.01037" lon="0.73547">
        <ele>695.4</ele>
        <time>2023-03-17T13:25:21.000Z</time>
      </trkpt>
      <trkpt lat="43.01036" lon="0.73534">
        <ele>696.1</ele>
        <time>2023-03-17T13:25:29.000Z</time>
      </trkpt>
      <trkpt lat="43.01036" lon="0.73521">
        <ele>696.8</ele>
        <time>2023-03-17T13:25:38.000Z</time>
      </trkpt>
      <trkpt lat="43.01035" lon="0.73507">
        <ele>697.7</ele>
        <time>2023-03-17T13:25:48.000Z</time>
      </trkpt>
      <trkpt lat="43.0103" lon="0.735">
        <ele>698.6</ele>
        <time>2023-03-17T13:26:02.000Z</time>
      </trkpt>
      <trkpt lat="43.01031" lon="0.73499">
        <ele>698.6</ele>
        <time>2023-03-17T13:26:04.000Z</time>
      </trkpt>
      <trkpt lat="43.01025" lon="0.7351">
        <ele>699</ele>
        <time>2023-03-17T13:26:28.000Z</time>
      </trkpt>
      <trkpt lat="43.01016" lon="0.73514">
        <ele>700.4</ele>
        <time>2023-03-17T13:26:35.000Z</time>
      </trkpt>
      <trkpt lat="43.01007" lon="0.73512">
        <ele>701.9</ele>
        <time>2023-03-17T13:26:41.000Z</time>
      </trkpt>
      <trkpt lat="43.01" lon="0.73505">
        <ele>703</ele>
        <time>2023-03-17T13:26:48.000Z</time>
      </trkpt>
      <trkpt lat="43.00993" lon="0.73496">
        <ele>704.1</ele>
        <time>2023-03-17T13:26:55.000Z</time>
      </trkpt>
      <trkpt lat="43.00987" lon="0.73486">
        <ele>704.9</ele>
        <time>2023-03-17T13:27:11.000Z</time>
      </trkpt>
      <trkpt lat="43.00986" lon="0.73473">
        <ele>705</ele>
        <time>2023-03-17T13:27:17.000Z</time>
      </trkpt>
      <trkpt lat="43.00987" lon="0.73459">
        <ele>705.1</ele>
        <time>2023-03-17T13:27:23.000Z</time>
      </trkpt>
      <trkpt lat="43.00988" lon="0.73446">
        <ele>705.2</ele>
        <time>2023-03-17T13:27:29.000Z</time>
      </trkpt>
      <trkpt lat="43.00988" lon="0.73434">
        <ele>704.9</ele>
        <time>2023-03-17T13:27:34.000Z</time>
      </trkpt>
      <trkpt lat="43.00989" lon="0.73421">
        <ele>704.4</ele>
        <time>2023-03-17T13:27:42.000Z</time>
      </trkpt>
      <trkpt lat="43.0099" lon="0.73408">
        <ele>703.8</ele>
        <time>2023-03-17T13:27:51.000Z</time>
      </trkpt>
      <trkpt lat="43.00985" lon="0.73398">
        <ele>704.5</ele>
        <time>2023-03-17T13:27:59.000Z</time>
      </trkpt>
      <trkpt lat="43.00978" lon="0.73388">
        <ele>705.8</ele>
        <time>2023-03-17T13:28:07.000Z</time>
      </trkpt>
      <trkpt lat="43.00974" lon="0.73376">
        <ele>706.2</ele>
        <time>2023-03-17T13:28:17.000Z</time>
      </trkpt>
      <trkpt lat="43.00973" lon="0.73363">
        <ele>705.8</ele>
        <time>2023-03-17T13:28:23.000Z</time>
      </trkpt>
      <trkpt lat="43.00977" lon="0.73351">
        <ele>704.8</ele>
        <time>2023-03-17T13:28:28.000Z</time>
      </trkpt>
      <trkpt lat="43.0098" lon="0.73338">
        <ele>703.7</ele>
        <time>2023-03-17T13:28:32.000Z</time>
      </trkpt>
      <trkpt lat="43.00985" lon="0.73326">
        <ele>702.3</ele>
        <time>2023-03-17T13:28:37.000Z</time>
      </trkpt>
      <trkpt lat="43.00991" lon="0.73317">
        <ele>700.3</ele>
        <time>2023-03-17T13:28:44.000Z</time>
      </trkpt>
      <trkpt lat="43.00993" lon="0.73304">
        <ele>699.8</ele>
        <time>2023-03-17T13:28:54.000Z</time>
      </trkpt>
      <trkpt lat="43.00992" lon="0.73291">
        <ele>699.9</ele>
        <time>2023-03-17T13:29:03.000Z</time>
      </trkpt>
      <trkpt lat="43.00993" lon="0.73278">
        <ele>699.9</ele>
        <time>2023-03-17T13:29:11.000Z</time>
      </trkpt>
      <trkpt lat="43.00992" lon="0.73264">
        <ele>700.4</ele>
        <time>2023-03-17T13:29:19.000Z</time>
      </trkpt>
      <trkpt lat="43.00991" lon="0.73251">
        <ele>700.9</ele>
        <time>2023-03-17T13:29:26.000Z</time>
      </trkpt>
      <trkpt lat="43.0099" lon="0.73238">
        <ele>701.2</ele>
        <time>2023-03-17T13:29:33.000Z</time>
      </trkpt>
      <trkpt lat="43.0099" lon="0.73226">
        <ele>701.2</ele>
        <time>2023-03-17T13:29:40.000Z</time>
      </trkpt>
      <trkpt lat="43.00989" lon="0.73213">
        <ele>701</ele>
        <time>2023-03-17T13:29:47.000Z</time>
      </trkpt>
      <trkpt lat="43.00986" lon="0.73202">
        <ele>701.3</ele>
        <time>2023-03-17T13:29:55.000Z</time>
      </trkpt>
      <trkpt lat="43.00981" lon="0.7319">
        <ele>701.8</ele>
        <time>2023-03-17T13:30:03.000Z</time>
      </trkpt>
      <trkpt lat="43.00976" lon="0.73179">
        <ele>702.2</ele>
        <time>2023-03-17T13:30:09.000Z</time>
      </trkpt>
      <trkpt lat="43.00974" lon="0.73167">
        <ele>701.8</ele>
        <time>2023-03-17T13:30:17.000Z</time>
      </trkpt>
      <trkpt lat="43.00974" lon="0.73153">
        <ele>700.7</ele>
        <time>2023-03-17T13:30:23.000Z</time>
      </trkpt>
      <trkpt lat="43.00974" lon="0.73139">
        <ele>699.8</ele>
        <time>2023-03-17T13:30:28.000Z</time>
      </trkpt>
      <trkpt lat="43.00971" lon="0.73127">
        <ele>699.5</ele>
        <time>2023-03-17T13:30:35.000Z</time>
      </trkpt>
      <trkpt lat="43.0097" lon="0.73115">
        <ele>698.8</ele>
        <time>2023-03-17T13:30:42.000Z</time>
      </trkpt>
      <trkpt lat="43.00969" lon="0.73102">
        <ele>698.7</ele>
        <time>2023-03-17T13:30:48.000Z</time>
      </trkpt>
      <trkpt lat="43.00966" lon="0.7309">
        <ele>699.2</ele>
        <time>2023-03-17T13:30:54.000Z</time>
      </trkpt>
      <trkpt lat="43.00963" lon="0.73076">
        <ele>699.6</ele>
        <time>2023-03-17T13:31:02.000Z</time>
      </trkpt>
      <trkpt lat="43.00962" lon="0.73063">
        <ele>699.8</ele>
        <time>2023-03-17T13:31:10.000Z</time>
      </trkpt>
      <trkpt lat="43.00964" lon="0.73051">
        <ele>699.1</ele>
        <time>2023-03-17T13:31:23.000Z</time>
      </trkpt>
      <trkpt lat="43.00972" lon="0.73043">
        <ele>697.2</ele>
        <time>2023-03-17T13:31:30.000Z</time>
      </trkpt>
      <trkpt lat="43.00979" lon="0.73034">
        <ele>695</ele>
        <time>2023-03-17T13:31:37.000Z</time>
      </trkpt>
      <trkpt lat="43.00988" lon="0.73029">
        <ele>692.6</ele>
        <time>2023-03-17T13:31:47.000Z</time>
      </trkpt>
      <trkpt lat="43.00987" lon="0.73017">
        <ele>692.4</ele>
        <time>2023-03-17T13:32:00.000Z</time>
      </trkpt>
      <trkpt lat="43.00986" lon="0.73005">
        <ele>692.7</ele>
        <time>2023-03-17T13:32:08.000Z</time>
      </trkpt>
      <trkpt lat="43.00984" lon="0.72991">
        <ele>692.6</ele>
        <time>2023-03-17T13:32:16.000Z</time>
      </trkpt>
      <trkpt lat="43.00984" lon="0.72978">
        <ele>692</ele>
        <time>2023-03-17T13:32:22.000Z</time>
      </trkpt>
      <trkpt lat="43.00984" lon="0.72964">
        <ele>691</ele>
        <time>2023-03-17T13:32:29.000Z</time>
      </trkpt>
      <trkpt lat="43.00988" lon="0.72951">
        <ele>688.9</ele>
        <time>2023-03-17T13:32:36.000Z</time>
      </trkpt>
      <trkpt lat="43.00989" lon="0.72937">
        <ele>687.4</ele>
        <time>2023-03-17T13:32:44.000Z</time>
      </trkpt>
      <trkpt lat="43.00986" lon="0.72923">
        <ele>687</ele>
        <time>2023-03-17T13:32:51.000Z</time>
      </trkpt>
      <trkpt lat="43.00985" lon="0.7291">
        <ele>686.4</ele>
        <time>2023-03-17T13:32:59.000Z</time>
      </trkpt>
      <trkpt lat="43.00983" lon="0.72898">
        <ele>686.1</ele>
        <time>2023-03-17T13:33:09.000Z</time>
      </trkpt>
      <trkpt lat="43.00983" lon="0.72883">
        <ele>684.8</ele>
        <time>2023-03-17T13:33:16.000Z</time>
      </trkpt>
      <trkpt lat="43.00986" lon="0.72871">
        <ele>683.2</ele>
        <time>2023-03-17T13:33:20.000Z</time>
      </trkpt>
      <trkpt lat="43.00988" lon="0.72858">
        <ele>681.9</ele>
        <time>2023-03-17T13:33:26.000Z</time>
      </trkpt>
      <trkpt lat="43.00986" lon="0.72846">
        <ele>681.2</ele>
        <time>2023-03-17T13:33:33.000Z</time>
      </trkpt>
      <trkpt lat="43.00986" lon="0.72833">
        <ele>680</ele>
        <time>2023-03-17T13:33:40.000Z</time>
      </trkpt>
      <trkpt lat="43.0099" lon="0.7282">
        <ele>679.6</ele>
        <time>2023-03-17T13:33:46.000Z</time>
      </trkpt>
      <trkpt lat="43.00997" lon="0.72809">
        <ele>679.1</ele>
        <time>2023-03-17T13:33:51.000Z</time>
      </trkpt>
      <trkpt lat="43.01005" lon="0.72801">
        <ele>679.8</ele>
        <time>2023-03-17T13:33:58.000Z</time>
      </trkpt>
      <trkpt lat="43.01013" lon="0.72793">
        <ele>681.5</ele>
        <time>2023-03-17T13:34:07.000Z</time>
      </trkpt>
      <trkpt lat="43.01021" lon="0.72787">
        <ele>683.3</ele>
        <time>2023-03-17T13:34:15.000Z</time>
      </trkpt>
      <trkpt lat="43.0103" lon="0.72782">
        <ele>685.6</ele>
        <time>2023-03-17T13:34:21.000Z</time>
      </trkpt>
      <trkpt lat="43.01038" lon="0.72774">
        <ele>689.5</ele>
        <time>2023-03-17T13:34:29.000Z</time>
      </trkpt>
      <trkpt lat="43.01047" lon="0.72771">
        <ele>692.7</ele>
        <time>2023-03-17T13:34:37.000Z</time>
      </trkpt>
      <trkpt lat="43.01056" lon="0.72767">
        <ele>696.1</ele>
        <time>2023-03-17T13:34:54.000Z</time>
      </trkpt>
      <trkpt lat="43.01063" lon="0.7276">
        <ele>700.1</ele>
        <time>2023-03-17T13:35:12.000Z</time>
      </trkpt>
      <trkpt lat="43.01071" lon="0.72753">
        <ele>703.9</ele>
        <time>2023-03-17T13:35:24.000Z</time>
      </trkpt>
      <trkpt lat="43.01078" lon="0.72745">
        <ele>708.3</ele>
        <time>2023-03-17T13:35:37.000Z</time>
      </trkpt>
      <trkpt lat="43.01083" lon="0.72734">
        <ele>713.1</ele>
        <time>2023-03-17T13:35:54.000Z</time>
      </trkpt>
      <trkpt lat="43.01088" lon="0.72723">
        <ele>717.1</ele>
        <time>2023-03-17T13:36:08.000Z</time>
      </trkpt>
      <trkpt lat="43.01095" lon="0.72714">
        <ele>719.9</ele>
        <time>2023-03-17T13:36:17.000Z</time>
      </trkpt>
      <trkpt lat="43.011" lon="0.72704">
        <ele>722.4</ele>
        <time>2023-03-17T13:36:28.000Z</time>
      </trkpt>
      <trkpt lat="43.01105" lon="0.72698">
        <ele>723.8</ele>
        <time>2023-03-17T13:36:39.000Z</time>
      </trkpt>
      <trkpt lat="43.01105" lon="0.72698">
        <ele>723.9</ele>
        <time>2023-03-17T13:36:40.000Z</time>
      </trkpt>
      <trkpt lat="43.01113" lon="0.72692">
        <ele>725.7</ele>
        <time>2023-03-17T13:36:55.000Z</time>
      </trkpt>
      <trkpt lat="43.01119" lon="0.72682">
        <ele>727.7</ele>
        <time>2023-03-17T13:37:05.000Z</time>
      </trkpt>
      <trkpt lat="43.01126" lon="0.72673">
        <ele>729.2</ele>
        <time>2023-03-17T13:37:13.000Z</time>
      </trkpt>
      <trkpt lat="43.01134" lon="0.72665">
        <ele>730.2</ele>
        <time>2023-03-17T13:37:20.000Z</time>
      </trkpt>
      <trkpt lat="43.01141" lon="0.72656">
        <ele>731.2</ele>
        <time>2023-03-17T13:37:27.000Z</time>
      </trkpt>
      <trkpt lat="43.01148" lon="0.72647">
        <ele>732.3</ele>
        <time>2023-03-17T13:37:34.000Z</time>
      </trkpt>
      <trkpt lat="43.01155" lon="0.72637">
        <ele>733.1</ele>
        <time>2023-03-17T13:37:41.000Z</time>
      </trkpt>
      <trkpt lat="43.0116" lon="0.72625">
        <ele>733.6</ele>
        <time>2023-03-17T13:37:50.000Z</time>
      </trkpt>
      <trkpt lat="43.01165" lon="0.72616">
        <ele>733.9</ele>
        <time>2023-03-17T13:37:59.000Z</time>
      </trkpt>
      <trkpt lat="43.0117" lon="0.72604">
        <ele>734.7</ele>
        <time>2023-03-17T13:38:07.000Z</time>
      </trkpt>
      <trkpt lat="43.0117" lon="0.72591">
        <ele>735.6</ele>
        <time>2023-03-17T13:38:17.000Z</time>
      </trkpt>
      <trkpt lat="43.0117" lon="0.72578">
        <ele>736.5</ele>
        <time>2023-03-17T13:38:26.000Z</time>
      </trkpt>
      <trkpt lat="43.01175" lon="0.72567">
        <ele>737.3</ele>
        <time>2023-03-17T13:38:35.000Z</time>
      </trkpt>
      <trkpt lat="43.01181" lon="0.72558">
        <ele>737.9</ele>
        <time>2023-03-17T13:38:42.000Z</time>
      </trkpt>
      <trkpt lat="43.01189" lon="0.7255">
        <ele>738.4</ele>
        <time>2023-03-17T13:38:49.000Z</time>
      </trkpt>
      <trkpt lat="43.01198" lon="0.72544">
        <ele>738.8</ele>
        <time>2023-03-17T13:38:57.000Z</time>
      </trkpt>
      <trkpt lat="43.01207" lon="0.72539">
        <ele>738.9</ele>
        <time>2023-03-17T13:39:05.000Z</time>
      </trkpt>
      <trkpt lat="43.01216" lon="0.72536">
        <ele>738.9</ele>
        <time>2023-03-17T13:39:16.000Z</time>
      </trkpt>
      <trkpt lat="43.01224" lon="0.72529">
        <ele>738.9</ele>
        <time>2023-03-17T13:39:25.000Z</time>
      </trkpt>
      <trkpt lat="43.01231" lon="0.7252">
        <ele>739.5</ele>
        <time>2023-03-17T13:39:34.000Z</time>
      </trkpt>
      <trkpt lat="43.01237" lon="0.72511">
        <ele>739.9</ele>
        <time>2023-03-17T13:39:42.000Z</time>
      </trkpt>
      <trkpt lat="43.01236" lon="0.72499">
        <ele>740.6</ele>
        <time>2023-03-17T13:39:53.000Z</time>
      </trkpt>
      <trkpt lat="43.01236" lon="0.72485">
        <ele>741.9</ele>
        <time>2023-03-17T13:40:01.000Z</time>
      </trkpt>
      <trkpt lat="43.01237" lon="0.72472">
        <ele>743</ele>
        <time>2023-03-17T13:40:10.000Z</time>
      </trkpt>
      <trkpt lat="43.01235" lon="0.72459">
        <ele>744.3</ele>
        <time>2023-03-17T13:40:21.000Z</time>
      </trkpt>
      <trkpt lat="43.01238" lon="0.72446">
        <ele>745.2</ele>
        <time>2023-03-17T13:40:32.000Z</time>
      </trkpt>
      <trkpt lat="43.01243" lon="0.72436">
        <ele>745.2</ele>
        <time>2023-03-17T13:40:38.000Z</time>
      </trkpt>
      <trkpt lat="43.01246" lon="0.72424">
        <ele>745.3</ele>
        <time>2023-03-17T13:40:45.000Z</time>
      </trkpt>
      <trkpt lat="43.01249" lon="0.72413">
        <ele>745.2</ele>
        <time>2023-03-17T13:40:54.000Z</time>
      </trkpt>
      <trkpt lat="43.0125" lon="0.724">
        <ele>745</ele>
        <time>2023-03-17T13:41:02.000Z</time>
      </trkpt>
      <trkpt lat="43.0125" lon="0.72387">
        <ele>744.9</ele>
        <time>2023-03-17T13:41:08.000Z</time>
      </trkpt>
      <trkpt lat="43.01246" lon="0.72375">
        <ele>744.8</ele>
        <time>2023-03-17T13:41:16.000Z</time>
      </trkpt>
      <trkpt lat="43.01244" lon="0.72363">
        <ele>744.5</ele>
        <time>2023-03-17T13:41:24.000Z</time>
      </trkpt>
      <trkpt lat="43.01241" lon="0.7235">
        <ele>744</ele>
        <time>2023-03-17T13:41:32.000Z</time>
      </trkpt>
      <trkpt lat="43.01237" lon="0.72339">
        <ele>744.2</ele>
        <time>2023-03-17T13:41:40.000Z</time>
      </trkpt>
      <trkpt lat="43.01231" lon="0.72327">
        <ele>744.4</ele>
        <time>2023-03-17T13:41:47.000Z</time>
      </trkpt>
      <trkpt lat="43.01225" lon="0.72317">
        <ele>744.6</ele>
        <time>2023-03-17T13:41:54.000Z</time>
      </trkpt>
      <trkpt lat="43.01217" lon="0.72308">
        <ele>745.2</ele>
        <time>2023-03-17T13:42:01.000Z</time>
      </trkpt>
      <trkpt lat="43.01211" lon="0.72299">
        <ele>745.4</ele>
        <time>2023-03-17T13:42:09.000Z</time>
      </trkpt>
      <trkpt lat="43.01204" lon="0.72291">
        <ele>746</ele>
        <time>2023-03-17T13:42:15.000Z</time>
      </trkpt>
      <trkpt lat="43.01197" lon="0.72283">
        <ele>746.9</ele>
        <time>2023-03-17T13:42:22.000Z</time>
      </trkpt>
      <trkpt lat="43.0119" lon="0.72275">
        <ele>747.3</ele>
        <time>2023-03-17T13:42:31.000Z</time>
      </trkpt>
      <trkpt lat="43.01185" lon="0.72263">
        <ele>746.4</ele>
        <time>2023-03-17T13:42:38.000Z</time>
      </trkpt>
      <trkpt lat="43.01179" lon="0.72253">
        <ele>746.1</ele>
        <time>2023-03-17T13:42:44.000Z</time>
      </trkpt>
      <trkpt lat="43.01173" lon="0.72243">
        <ele>746.1</ele>
        <time>2023-03-17T13:42:51.000Z</time>
      </trkpt>
      <trkpt lat="43.01167" lon="0.72233">
        <ele>746</ele>
        <time>2023-03-17T13:42:59.000Z</time>
      </trkpt>
      <trkpt lat="43.01161" lon="0.72223">
        <ele>745.9</ele>
        <time>2023-03-17T13:43:06.000Z</time>
      </trkpt>
      <trkpt lat="43.01155" lon="0.72214">
        <ele>746</ele>
        <time>2023-03-17T13:43:15.000Z</time>
      </trkpt>
      <trkpt lat="43.01147" lon="0.72205">
        <ele>746.3</ele>
        <time>2023-03-17T13:43:22.000Z</time>
      </trkpt>
      <trkpt lat="43.0114" lon="0.72197">
        <ele>746.9</ele>
        <time>2023-03-17T13:43:35.000Z</time>
      </trkpt>
      <trkpt lat="43.01133" lon="0.72188">
        <ele>747.6</ele>
        <time>2023-03-17T13:43:43.000Z</time>
        <extensions>
          <visugpx:TrkExtension xmlns:visugpx="https://www.visugpx.com/editgpx/">
            <visugpx:node>1</visugpx:node>
            </visugpx:TrkExtension>
        </extensions>
      </trkpt>
      <trkpt lat="43.01129" lon="0.72189">
        <ele>748.5</ele>
      </trkpt>
      <trkpt lat="43.01123" lon="0.72199">
        <ele>750</ele>
      </trkpt>
      <trkpt lat="43.01105" lon="0.72196">
        <ele>752.6</ele>
      </trkpt>
      <trkpt lat="43.01103" lon="0.72197">
        <ele>752.8</ele>
        <extensions>
          <visugpx:TrkExtension xmlns:visugpx="https://www.visugpx.com/editgpx/">
            <visugpx:node>2</visugpx:node>
            </visugpx:TrkExtension>
        </extensions>
      </trkpt>
      <trkpt lat="43.01099" lon="0.72193">
        <ele>753.3</ele>
        <time>2023-03-17T13:46:13.000Z</time>
        <extensions>
          <visugpx:TrkExtension xmlns:visugpx="https://www.visugpx.com/editgpx/">
            <visugpx:node>3</visugpx:node>
            </visugpx:TrkExtension>
        </extensions>
      </trkpt>
      <trkpt lat="43.01096" lon="0.72196">
        <ele>753.6</ele>
        <extensions>
          <visugpx:TrkExtension xmlns:visugpx="https://www.visugpx.com/editgpx/">
            <visugpx:node>4</visugpx:node>
            </visugpx:TrkExtension>
        </extensions>
      </trkpt>
      <trkpt lat="43.01094" lon="0.72199">
        <ele>753.8</ele>
        <extensions>
          <visugpx:TrkExtension xmlns:visugpx="https://www.visugpx.com/editgpx/">
            <visugpx:node>5</visugpx:node>
            </visugpx:TrkExtension>
        </extensions>
      </trkpt>
      <trkpt lat="43.01092" lon="0.72201">
        <ele>753.9</ele>
        <time>2023-03-17T13:46:19.000Z</time>
      </trkpt>
      <trkpt lat="43.01087" lon="0.72211">
        <ele>754.1</ele>
        <time>2023-03-17T13:46:28.000Z</time>
      </trkpt>
      <trkpt lat="43.01079" lon="0.7222">
        <ele>754.3</ele>
        <time>2023-03-17T13:46:38.000Z</time>
      </trkpt>
      <trkpt lat="43.01071" lon="0.72227">
        <ele>754.2</ele>
        <time>2023-03-17T13:46:45.000Z</time>
      </trkpt>
      <trkpt lat="43.01063" lon="0.72231">
        <ele>754.2</ele>
        <time>2023-03-17T13:46:52.000Z</time>
      </trkpt>
      <trkpt lat="43.01053" lon="0.72231">
        <ele>754.6</ele>
        <time>2023-03-17T13:46:58.000Z</time>
      </trkpt>
      <trkpt lat="43.01043" lon="0.72228">
        <ele>755.4</ele>
        <time>2023-03-17T13:47:04.000Z</time>
      </trkpt>
      <trkpt lat="43.01035" lon="0.72222">
        <ele>756.5</ele>
        <time>2023-03-17T13:47:10.000Z</time>
      </trkpt>
      <trkpt lat="43.01026" lon="0.72226">
        <ele>756.7</ele>
        <time>2023-03-17T13:47:20.000Z</time>
      </trkpt>
      <trkpt lat="43.01018" lon="0.72231">
        <ele>756.8</ele>
        <time>2023-03-17T13:47:34.000Z</time>
      </trkpt>
      <trkpt lat="43.01012" lon="0.72241">
        <ele>756</ele>
        <time>2023-03-17T13:47:43.000Z</time>
      </trkpt>
      <trkpt lat="43.01008" lon="0.72252">
        <ele>755</ele>
        <time>2023-03-17T13:47:51.000Z</time>
      </trkpt>
      <trkpt lat="43.01002" lon="0.72263">
        <ele>753.4</ele>
        <time>2023-03-17T13:48:01.000Z</time>
      </trkpt>
      <trkpt lat="43.00995" lon="0.72273">
        <ele>752.6</ele>
        <time>2023-03-17T13:48:08.000Z</time>
      </trkpt>
      <trkpt lat="43.00988" lon="0.72282">
        <ele>751.7</ele>
        <time>2023-03-17T13:48:17.000Z</time>
      </trkpt>
      <trkpt lat="43.00984" lon="0.72294">
        <ele>749.8</ele>
        <time>2023-03-17T13:48:26.000Z</time>
      </trkpt>
      <trkpt lat="43.00978" lon="0.72305">
        <ele>748.2</ele>
        <time>2023-03-17T13:48:34.000Z</time>
      </trkpt>
      <trkpt lat="43.00974" lon="0.72318">
        <ele>745.2</ele>
        <time>2023-03-17T13:48:41.000Z</time>
      </trkpt>
      <trkpt lat="43.00968" lon="0.72327">
        <ele>743.5</ele>
        <time>2023-03-17T13:48:48.000Z</time>
      </trkpt>
      <trkpt lat="43.00959" lon="0.72331">
        <ele>744.1</ele>
        <time>2023-03-17T13:48:54.000Z</time>
      </trkpt>
      <trkpt lat="43.0095" lon="0.72338">
        <ele>743.8</ele>
        <time>2023-03-17T13:49:00.000Z</time>
      </trkpt>
      <trkpt lat="43.00941" lon="0.72343">
        <ele>743.4</ele>
        <time>2023-03-17T13:49:06.000Z</time>
      </trkpt>
      <trkpt lat="43.00932" lon="0.72345">
        <ele>743</ele>
        <time>2023-03-17T13:49:16.000Z</time>
      </trkpt>
      <trkpt lat="43.00924" lon="0.72352">
        <ele>740.9</ele>
        <time>2023-03-17T13:49:28.000Z</time>
      </trkpt>
      <trkpt lat="43.00921" lon="0.72364">
        <ele>737.2</ele>
        <time>2023-03-17T13:49:36.000Z</time>
      </trkpt>
      <trkpt lat="43.0092" lon="0.72377">
        <ele>733.4</ele>
        <time>2023-03-17T13:49:48.000Z</time>
      </trkpt>
      <trkpt lat="43.00926" lon="0.72388">
        <ele>730.1</ele>
        <time>2023-03-17T13:49:58.000Z</time>
      </trkpt>
      <trkpt lat="43.00931" lon="0.72399">
        <ele>727.4</ele>
        <time>2023-03-17T13:50:07.000Z</time>
      </trkpt>
      <trkpt lat="43.00934" lon="0.72411">
        <ele>724.5</ele>
        <time>2023-03-17T13:50:16.000Z</time>
      </trkpt>
      <trkpt lat="43.00928" lon="0.72421">
        <ele>722.9</ele>
        <time>2023-03-17T13:50:23.000Z</time>
      </trkpt>
      <trkpt lat="43.0092" lon="0.72427">
        <ele>722.4</ele>
        <time>2023-03-17T13:50:30.000Z</time>
      </trkpt>
      <trkpt lat="43.00913" lon="0.72435">
        <ele>720.7</ele>
        <time>2023-03-17T13:50:37.000Z</time>
      </trkpt>
      <trkpt lat="43.00908" lon="0.72446">
        <ele>718.6</ele>
        <time>2023-03-17T13:50:45.000Z</time>
      </trkpt>
      <trkpt lat="43.00907" lon="0.72459">
        <ele>717.5</ele>
        <time>2023-03-17T13:50:55.000Z</time>
      </trkpt>
      <trkpt lat="43.00904" lon="0.72471">
        <ele>716.2</ele>
        <time>2023-03-17T13:51:03.000Z</time>
      </trkpt>
      <trkpt lat="43.00899" lon="0.72481">
        <ele>715.5</ele>
        <time>2023-03-17T13:51:09.000Z</time>
      </trkpt>
      <trkpt lat="43.00894" lon="0.72494">
        <ele>715.1</ele>
        <time>2023-03-17T13:51:16.000Z</time>
      </trkpt>
      <trkpt lat="43.00888" lon="0.72506">
        <ele>715</ele>
        <time>2023-03-17T13:51:22.000Z</time>
      </trkpt>
      <trkpt lat="43.00883" lon="0.72517">
        <ele>715.2</ele>
        <time>2023-03-17T13:51:30.000Z</time>
      </trkpt>
      <trkpt lat="43.00878" lon="0.72528">
        <ele>715.8</ele>
        <time>2023-03-17T13:51:38.000Z</time>
      </trkpt>
      <trkpt lat="43.00874" lon="0.7254">
        <ele>716.5</ele>
        <time>2023-03-17T13:51:45.000Z</time>
      </trkpt>
      <trkpt lat="43.00865" lon="0.72546">
        <ele>717.4</ele>
        <time>2023-03-17T13:51:56.000Z</time>
      </trkpt>
      <trkpt lat="43.00855" lon="0.72546">
        <ele>718.2</ele>
        <time>2023-03-17T13:52:03.000Z</time>
      </trkpt>
      <trkpt lat="43.00846" lon="0.72545">
        <ele>719</ele>
        <time>2023-03-17T13:52:10.000Z</time>
      </trkpt>
      <trkpt lat="43.00836" lon="0.72546">
        <ele>719.8</ele>
        <time>2023-03-17T13:52:20.000Z</time>
      </trkpt>
      <trkpt lat="43.00826" lon="0.72546">
        <ele>721.1</ele>
        <time>2023-03-17T13:52:29.000Z</time>
      </trkpt>
      <trkpt lat="43.00817" lon="0.72546">
        <ele>722.5</ele>
        <time>2023-03-17T13:52:42.000Z</time>
      </trkpt>
      <trkpt lat="43.00807" lon="0.72547">
        <ele>724.1</ele>
        <time>2023-03-17T13:52:52.000Z</time>
      </trkpt>
      <trkpt lat="43.00797" lon="0.72548">
        <ele>725.9</ele>
        <time>2023-03-17T13:52:59.000Z</time>
      </trkpt>
      <trkpt lat="43.00787" lon="0.72547">
        <ele>727.7</ele>
        <time>2023-03-17T13:53:07.000Z</time>
      </trkpt>
      <trkpt lat="43.00778" lon="0.72546">
        <ele>729.4</ele>
        <time>2023-03-17T13:53:20.000Z</time>
      </trkpt>
      <trkpt lat="43.00767" lon="0.72544">
        <ele>731.3</ele>
        <time>2023-03-17T13:53:30.000Z</time>
      </trkpt>
      <trkpt lat="43.00758" lon="0.72544">
        <ele>733</ele>
        <time>2023-03-17T13:53:36.000Z</time>
      </trkpt>
      <trkpt lat="43.00748" lon="0.72542">
        <ele>734.8</ele>
        <time>2023-03-17T13:53:43.000Z</time>
      </trkpt>
      <trkpt lat="43.00739" lon="0.72539">
        <ele>736.5</ele>
        <time>2023-03-17T13:53:51.000Z</time>
      </trkpt>
      <trkpt lat="43.00729" lon="0.72542">
        <ele>738.2</ele>
        <time>2023-03-17T13:54:04.000Z</time>
      </trkpt>
      <trkpt lat="43.0072" lon="0.72542">
        <ele>740</ele>
        <time>2023-03-17T13:54:12.000Z</time>
      </trkpt>
      <trkpt lat="43.0071" lon="0.72539">
        <ele>741.7</ele>
        <time>2023-03-17T13:54:19.000Z</time>
      </trkpt>
      <trkpt lat="43.00701" lon="0.72535">
        <ele>742.9</ele>
        <time>2023-03-17T13:54:27.000Z</time>
      </trkpt>
      <trkpt lat="43.00692" lon="0.72533">
        <ele>744.2</ele>
        <time>2023-03-17T13:54:38.000Z</time>
      </trkpt>
      <trkpt lat="43.00683" lon="0.7253">
        <ele>745.5</ele>
        <time>2023-03-17T13:54:51.000Z</time>
      </trkpt>
      <trkpt lat="43.00674" lon="0.72525">
        <ele>746.5</ele>
        <time>2023-03-17T13:55:00.000Z</time>
      </trkpt>
      <trkpt lat="43.00665" lon="0.72522">
        <ele>748</ele>
        <time>2023-03-17T13:55:07.000Z</time>
      </trkpt>
      <trkpt lat="43.00656" lon="0.72516">
        <ele>749.4</ele>
        <time>2023-03-17T13:55:15.000Z</time>
      </trkpt>
      <trkpt lat="43.00647" lon="0.72512">
        <ele>750.7</ele>
        <time>2023-03-17T13:55:22.000Z</time>
      </trkpt>
      <trkpt lat="43.00639" lon="0.72506">
        <ele>751</ele>
        <time>2023-03-17T13:55:31.000Z</time>
      </trkpt>
      <trkpt lat="43.00634" lon="0.72495">
        <ele>750.9</ele>
        <time>2023-03-17T13:55:42.000Z</time>
      </trkpt>
      <trkpt lat="43.00626" lon="0.72489">
        <ele>752</ele>
        <time>2023-03-17T13:55:51.000Z</time>
      </trkpt>
      <trkpt lat="43.0062" lon="0.72479">
        <ele>752.3</ele>
        <time>2023-03-17T13:56:00.000Z</time>
      </trkpt>
      <trkpt lat="43.0062" lon="0.72468">
        <ele>751.7</ele>
        <time>2023-03-17T13:56:12.000Z</time>
      </trkpt>
      <trkpt lat="43.0062" lon="0.72469">
        <ele>751.7</ele>
        <time>2023-03-17T13:56:14.000Z</time>
      </trkpt>
      <trkpt lat="43.0062" lon="0.72469">
        <ele>751.7</ele>
        <time>2023-03-17T13:56:15.000Z</time>
      </trkpt>
      <trkpt lat="43.0062" lon="0.7247">
        <ele>751.7</ele>
        <time>2023-03-17T13:56:18.000Z</time>
      </trkpt>
      <trkpt lat="43.00621" lon="0.72483">
        <ele>752.5</ele>
        <time>2023-03-17T13:56:27.000Z</time>
      </trkpt>
      <trkpt lat="43.00625" lon="0.72495">
        <ele>752.7</ele>
        <time>2023-03-17T13:56:35.000Z</time>
      </trkpt>
      <trkpt lat="43.00631" lon="0.72504">
        <ele>752.4</ele>
        <time>2023-03-17T13:56:42.000Z</time>
      </trkpt>
      <trkpt lat="43.00638" lon="0.72514">
        <ele>752.7</ele>
        <time>2023-03-17T13:56:50.000Z</time>
      </trkpt>
      <trkpt lat="43.00643" lon="0.72525">
        <ele>753.5</ele>
        <time>2023-03-17T13:56:57.000Z</time>
      </trkpt>
      <trkpt lat="43.00648" lon="0.72536">
        <ele>754.9</ele>
        <time>2023-03-17T13:57:04.000Z</time>
      </trkpt>
      <trkpt lat="43.00652" lon="0.72548">
        <ele>756.4</ele>
        <time>2023-03-17T13:57:13.000Z</time>
      </trkpt>
      <trkpt lat="43.00656" lon="0.72559">
        <ele>758.1</ele>
        <time>2023-03-17T13:57:24.000Z</time>
      </trkpt>
      <trkpt lat="43.00662" lon="0.7257">
        <ele>759.7</ele>
        <time>2023-03-17T13:57:33.000Z</time>
      </trkpt>
      <trkpt lat="43.00668" lon="0.72579">
        <ele>760.2</ele>
        <time>2023-03-17T13:57:40.000Z</time>
      </trkpt>
      <trkpt lat="43.00675" lon="0.72588">
        <ele>760.4</ele>
        <time>2023-03-17T13:57:48.000Z</time>
      </trkpt>
      <trkpt lat="43.00681" lon="0.72598">
        <ele>761</ele>
        <time>2023-03-17T13:57:55.000Z</time>
      </trkpt>
      <trkpt lat="43.00686" lon="0.72611">
        <ele>762.1</ele>
        <time>2023-03-17T13:58:02.000Z</time>
      </trkpt>
      <trkpt lat="43.0069" lon="0.72623">
        <ele>762.8</ele>
        <time>2023-03-17T13:58:09.000Z</time>
      </trkpt>
      <trkpt lat="43.00693" lon="0.72635">
        <ele>763.6</ele>
        <time>2023-03-17T13:58:16.000Z</time>
      </trkpt>
      <trkpt lat="43.00697" lon="0.72647">
        <ele>763.9</ele>
        <time>2023-03-17T13:58:26.000Z</time>
      </trkpt>
      <trkpt lat="43.00696" lon="0.7265">
        <ele>765.1</ele>
        <time>2023-03-17T13:58:41.000Z</time>
      </trkpt>
      <trkpt lat="43.00696" lon="0.72647">
        <ele>764.6</ele>
        <time>2023-03-17T14:01:20.000Z</time>
      </trkpt>
      <trkpt lat="43.00695" lon="0.72645">
        <ele>764.6</ele>
        <time>2023-03-17T14:01:24.000Z</time>
      </trkpt>
      <trkpt lat="43.00695" lon="0.72646">
        <ele>764.9</ele>
        <time>2023-03-17T14:01:35.000Z</time>
      </trkpt>
      <trkpt lat="43.00697" lon="0.72653">
        <ele>764.9</ele>
        <time>2023-03-17T14:01:52.000Z</time>
      </trkpt>
      <trkpt lat="43.00699" lon="0.72655">
        <ele>764.1</ele>
        <time>2023-03-17T14:02:12.000Z</time>
      </trkpt>
      <trkpt lat="43.00704" lon="0.72666">
        <ele>763.6</ele>
        <time>2023-03-17T14:02:20.000Z</time>
      </trkpt>
      <trkpt lat="43.0071" lon="0.72678">
        <ele>762.4</ele>
        <time>2023-03-17T14:02:31.000Z</time>
      </trkpt>
      <trkpt lat="43.00712" lon="0.7269">
        <ele>762.4</ele>
        <time>2023-03-17T14:02:38.000Z</time>
      </trkpt>
      <trkpt lat="43.00714" lon="0.72702">
        <ele>762.6</ele>
        <time>2023-03-17T14:02:46.000Z</time>
      </trkpt>
      <trkpt lat="43.00715" lon="0.72715">
        <ele>763.2</ele>
        <time>2023-03-17T14:02:54.000Z</time>
      </trkpt>
      <trkpt lat="43.00716" lon="0.72728">
        <ele>763.5</ele>
        <time>2023-03-17T14:03:01.000Z</time>
      </trkpt>
      <trkpt lat="43.00716" lon="0.72742">
        <ele>763.7</ele>
        <time>2023-03-17T14:03:09.000Z</time>
      </trkpt>
      <trkpt lat="43.0071" lon="0.72744">
        <ele>766.3</ele>
        <time>2023-03-17T14:03:23.000Z</time>
      </trkpt>
      <trkpt lat="43.00708" lon="0.72744">
        <ele>767</ele>
        <time>2023-03-17T14:03:30.000Z</time>
      </trkpt>
      <trkpt lat="43.00708" lon="0.72749">
        <ele>767.4</ele>
        <time>2023-03-17T14:03:38.000Z</time>
      </trkpt>
      <trkpt lat="43.00708" lon="0.7275">
        <ele>767</ele>
        <time>2023-03-17T14:03:40.000Z</time>
      </trkpt>
      <trkpt lat="43.0071" lon="0.72764">
        <ele>765.1</ele>
        <time>2023-03-17T14:03:48.000Z</time>
      </trkpt>
      <trkpt lat="43.00709" lon="0.72777">
        <ele>764</ele>
        <time>2023-03-17T14:03:55.000Z</time>
      </trkpt>
      <trkpt lat="43.0071" lon="0.7279">
        <ele>762.6</ele>
        <time>2023-03-17T14:04:02.000Z</time>
      </trkpt>
      <trkpt lat="43.0071" lon="0.72804">
        <ele>761.3</ele>
        <time>2023-03-17T14:04:10.000Z</time>
      </trkpt>
      <trkpt lat="43.0071" lon="0.72817">
        <ele>761.9</ele>
        <time>2023-03-17T14:04:18.000Z</time>
      </trkpt>
      <trkpt lat="43.00706" lon="0.7283">
        <ele>763.1</ele>
        <time>2023-03-17T14:04:27.000Z</time>
      </trkpt>
      <trkpt lat="43.00707" lon="0.72843">
        <ele>763.9</ele>
        <time>2023-03-17T14:04:35.000Z</time>
      </trkpt>
      <trkpt lat="43.00707" lon="0.72845">
        <ele>764</ele>
        <time>2023-03-17T14:04:40.000Z</time>
      </trkpt>
      <trkpt lat="43.00707" lon="0.72845">
        <ele>764</ele>
        <time>2023-03-17T14:04:41.000Z</time>
      </trkpt>
      <trkpt lat="43.00707" lon="0.72844">
        <ele>764</ele>
        <time>2023-03-17T14:04:45.000Z</time>
      </trkpt>
      <trkpt lat="43.00708" lon="0.72844">
        <ele>763.9</ele>
        <time>2023-03-17T14:04:47.000Z</time>
      </trkpt>
      <trkpt lat="43.00717" lon="0.72848">
        <ele>763.2</ele>
        <time>2023-03-17T14:04:58.000Z</time>
      </trkpt>
      <trkpt lat="43.00726" lon="0.72845">
        <ele>761.6</ele>
        <time>2023-03-17T14:05:10.000Z</time>
      </trkpt>
      <trkpt lat="43.00734" lon="0.72838">
        <ele>759.4</ele>
        <time>2023-03-17T14:05:21.000Z</time>
      </trkpt>
      <trkpt lat="43.00744" lon="0.72838">
        <ele>757.6</ele>
        <time>2023-03-17T14:05:31.000Z</time>
      </trkpt>
      <trkpt lat="43.00752" lon="0.72843">
        <ele>756.4</ele>
        <time>2023-03-17T14:05:37.000Z</time>
      </trkpt>
      <trkpt lat="43.0076" lon="0.72851">
        <ele>754.6</ele>
        <time>2023-03-17T14:05:46.000Z</time>
      </trkpt>
      <trkpt lat="43.00768" lon="0.72855">
        <ele>752.4</ele>
        <time>2023-03-17T14:05:53.000Z</time>
      </trkpt>
      <trkpt lat="43.00777" lon="0.72858">
        <ele>749.8</ele>
        <time>2023-03-17T14:06:02.000Z</time>
      </trkpt>
      <trkpt lat="43.00786" lon="0.72865">
        <ele>747.6</ele>
        <time>2023-03-17T14:06:08.000Z</time>
      </trkpt>
      <trkpt lat="43.00795" lon="0.72871">
        <ele>745.1</ele>
        <time>2023-03-17T14:06:17.000Z</time>
      </trkpt>
      <trkpt lat="43.00802" lon="0.72881">
        <ele>744.3</ele>
        <time>2023-03-17T14:06:23.000Z</time>
      </trkpt>
      <trkpt lat="43.00807" lon="0.72892">
        <ele>744</ele>
        <time>2023-03-17T14:06:29.000Z</time>
      </trkpt>
      <trkpt lat="43.00812" lon="0.72903">
        <ele>743.5</ele>
        <time>2023-03-17T14:06:35.000Z</time>
      </trkpt>
      <trkpt lat="43.00819" lon="0.72911">
        <ele>742</ele>
        <time>2023-03-17T14:06:41.000Z</time>
      </trkpt>
      <trkpt lat="43.00825" lon="0.72921">
        <ele>741.5</ele>
        <time>2023-03-17T14:06:50.000Z</time>
      </trkpt>
      <trkpt lat="43.00829" lon="0.72933">
        <ele>741.8</ele>
        <time>2023-03-17T14:06:56.000Z</time>
      </trkpt>
      <trkpt lat="43.00832" lon="0.72945">
        <ele>742.6</ele>
        <time>2023-03-17T14:07:01.000Z</time>
      </trkpt>
      <trkpt lat="43.00834" lon="0.72958">
        <ele>743.5</ele>
        <time>2023-03-17T14:07:09.000Z</time>
      </trkpt>
      <trkpt lat="43.00833" lon="0.7297">
        <ele>745.7</ele>
        <time>2023-03-17T14:07:17.000Z</time>
      </trkpt>
      <trkpt lat="43.00835" lon="0.72983">
        <ele>747.3</ele>
        <time>2023-03-17T14:07:25.000Z</time>
      </trkpt>
      <trkpt lat="43.00835" lon="0.72996">
        <ele>749.4</ele>
        <time>2023-03-17T14:07:32.000Z</time>
      </trkpt>
      <trkpt lat="43.00835" lon="0.73009">
        <ele>751.4</ele>
        <time>2023-03-17T14:07:40.000Z</time>
      </trkpt>
      <trkpt lat="43.00837" lon="0.73022">
        <ele>751.5</ele>
        <time>2023-03-17T14:07:47.000Z</time>
      </trkpt>
      <trkpt lat="43.00838" lon="0.73036">
        <ele>751.8</ele>
        <time>2023-03-17T14:07:55.000Z</time>
      </trkpt>
      <trkpt lat="43.00839" lon="0.73048">
        <ele>751.3</ele>
        <time>2023-03-17T14:08:03.000Z</time>
      </trkpt>
      <trkpt lat="43.00838" lon="0.73061">
        <ele>751.5</ele>
        <time>2023-03-17T14:08:11.000Z</time>
      </trkpt>
      <trkpt lat="43.00838" lon="0.73073">
        <ele>750.6</ele>
        <time>2023-03-17T14:08:18.000Z</time>
      </trkpt>
      <trkpt lat="43.00839" lon="0.73087">
        <ele>749.4</ele>
        <time>2023-03-17T14:08:24.000Z</time>
      </trkpt>
      <trkpt lat="43.0084" lon="0.73101">
        <ele>748.4</ele>
        <time>2023-03-17T14:08:32.000Z</time>
      </trkpt>
      <trkpt lat="43.00841" lon="0.73114">
        <ele>747.7</ele>
        <time>2023-03-17T14:08:40.000Z</time>
      </trkpt>
      <trkpt lat="43.00843" lon="0.73127">
        <ele>746</ele>
        <time>2023-03-17T14:08:50.000Z</time>
      </trkpt>
      <trkpt lat="43.00846" lon="0.73139">
        <ele>744.1</ele>
        <time>2023-03-17T14:09:00.000Z</time>
      </trkpt>
      <trkpt lat="43.00851" lon="0.7315">
        <ele>741.1</ele>
        <time>2023-03-17T14:09:07.000Z</time>
      </trkpt>
      <trkpt lat="43.00857" lon="0.7316">
        <ele>738.2</ele>
        <time>2023-03-17T14:09:15.000Z</time>
      </trkpt>
      <trkpt lat="43.00861" lon="0.73172">
        <ele>735.7</ele>
        <time>2023-03-17T14:09:23.000Z</time>
      </trkpt>
      <trkpt lat="43.00866" lon="0.73183">
        <ele>733.7</ele>
        <time>2023-03-17T14:09:30.000Z</time>
      </trkpt>
      <trkpt lat="43.0087" lon="0.73197">
        <ele>732</ele>
        <time>2023-03-17T14:09:36.000Z</time>
      </trkpt>
      <trkpt lat="43.00871" lon="0.7321">
        <ele>731.1</ele>
        <time>2023-03-17T14:09:43.000Z</time>
      </trkpt>
      <trkpt lat="43.00871" lon="0.73223">
        <ele>730.5</ele>
        <time>2023-03-17T14:09:49.000Z</time>
      </trkpt>
      <trkpt lat="43.00871" lon="0.73236">
        <ele>729.7</ele>
        <time>2023-03-17T14:09:57.000Z</time>
      </trkpt>
      <trkpt lat="43.0087" lon="0.73249">
        <ele>729.1</ele>
        <time>2023-03-17T14:10:05.000Z</time>
      </trkpt>
      <trkpt lat="43.0087" lon="0.73262">
        <ele>728</ele>
        <time>2023-03-17T14:10:14.000Z</time>
      </trkpt>
      <trkpt lat="43.00868" lon="0.73275">
        <ele>727.1</ele>
        <time>2023-03-17T14:10:20.000Z</time>
      </trkpt>
      <trkpt lat="43.00867" lon="0.73287">
        <ele>726</ele>
        <time>2023-03-17T14:10:25.000Z</time>
      </trkpt>
      <trkpt lat="43.00865" lon="0.733">
        <ele>725</ele>
        <time>2023-03-17T14:10:34.000Z</time>
      </trkpt>
      <trkpt lat="43.00862" lon="0.73312">
        <ele>724.7</ele>
        <time>2023-03-17T14:10:41.000Z</time>
      </trkpt>
      <trkpt lat="43.00858" lon="0.73324">
        <ele>724.7</ele>
        <time>2023-03-17T14:10:49.000Z</time>
      </trkpt>
      <trkpt lat="43.00852" lon="0.73334">
        <ele>725</ele>
        <time>2023-03-17T14:10:55.000Z</time>
      </trkpt>
      <trkpt lat="43.00846" lon="0.73345">
        <ele>725.8</ele>
        <time>2023-03-17T14:11:01.000Z</time>
      </trkpt>
      <trkpt lat="43.00839" lon="0.73353">
        <ele>727</ele>
        <time>2023-03-17T14:11:08.000Z</time>
      </trkpt>
      <trkpt lat="43.0083" lon="0.73356">
        <ele>728.3</ele>
        <time>2023-03-17T14:11:13.000Z</time>
      </trkpt>
      <trkpt lat="43.00821" lon="0.73358">
        <ele>729.7</ele>
        <time>2023-03-17T14:11:19.000Z</time>
      </trkpt>
      <trkpt lat="43.00812" lon="0.7336">
        <ele>731.1</ele>
        <time>2023-03-17T14:11:26.000Z</time>
      </trkpt>
      <trkpt lat="43.00803" lon="0.73362">
        <ele>732.3</ele>
        <time>2023-03-17T14:11:43.000Z</time>
      </trkpt>
      <trkpt lat="43.00807" lon="0.73355">
        <ele>731.6</ele>
        <time>2023-03-17T14:12:43.000Z</time>
      </trkpt>
      <trkpt lat="43.00809" lon="0.73351">
        <ele>731.1</ele>
        <time>2023-03-17T14:12:48.000Z</time>
      </trkpt>
      <trkpt lat="43.00809" lon="0.7335">
        <ele>731.1</ele>
        <time>2023-03-17T14:13:18.000Z</time>
      </trkpt>
      <trkpt lat="43.00809" lon="0.73349">
        <ele>731.1</ele>
        <time>2023-03-17T14:13:22.000Z</time>
      </trkpt>
      <trkpt lat="43.00809" lon="0.73349">
        <ele>731</ele>
        <time>2023-03-17T14:13:34.000Z</time>
      </trkpt>
      <trkpt lat="43.00811" lon="0.73348">
        <ele>730.8</ele>
        <time>2023-03-17T14:13:39.000Z</time>
      </trkpt>
      <trkpt lat="43.00814" lon="0.73344">
        <ele>730.1</ele>
        <time>2023-03-17T14:14:01.000Z</time>
      </trkpt>
      <trkpt lat="43.00823" lon="0.7334">
        <ele>728.7</ele>
        <time>2023-03-17T14:14:14.000Z</time>
      </trkpt>
      <trkpt lat="43.00831" lon="0.73346">
        <ele>727.7</ele>
        <time>2023-03-17T14:14:26.000Z</time>
      </trkpt>
      <trkpt lat="43.00838" lon="0.73354">
        <ele>727.1</ele>
        <time>2023-03-17T14:14:36.000Z</time>
      </trkpt>
      <trkpt lat="43.00848" lon="0.73358">
        <ele>725.8</ele>
        <time>2023-03-17T14:14:48.000Z</time>
      </trkpt>
      <trkpt lat="43.00857" lon="0.7336">
        <ele>724.5</ele>
        <time>2023-03-17T14:14:57.000Z</time>
      </trkpt>
      <trkpt lat="43.00866" lon="0.73355">
        <ele>723.4</ele>
        <time>2023-03-17T14:15:07.000Z</time>
      </trkpt>
      <trkpt lat="43.00872" lon="0.73346">
        <ele>722.4</ele>
        <time>2023-03-17T14:15:15.000Z</time>
      </trkpt>
      <trkpt lat="43.0088" lon="0.7334">
        <ele>721.2</ele>
        <time>2023-03-17T14:15:25.000Z</time>
      </trkpt>
      <trkpt lat="43.0089" lon="0.7334">
        <ele>719.8</ele>
        <time>2023-03-17T14:15:35.000Z</time>
      </trkpt>
      <trkpt lat="43.00899" lon="0.7334">
        <ele>718.6</ele>
        <time>2023-03-17T14:15:42.000Z</time>
      </trkpt>
      <trkpt lat="43.00909" lon="0.73337">
        <ele>717.1</ele>
        <time>2023-03-17T14:15:50.000Z</time>
      </trkpt>
      <trkpt lat="43.00918" lon="0.73333">
        <ele>715.9</ele>
        <time>2023-03-17T14:15:56.000Z</time>
      </trkpt>
      <trkpt lat="43.00927" lon="0.73328">
        <ele>714.6</ele>
        <time>2023-03-17T14:16:04.000Z</time>
      </trkpt>
      <trkpt lat="43.00937" lon="0.73325">
        <ele>713.2</ele>
        <time>2023-03-17T14:16:11.000Z</time>
      </trkpt>
      <trkpt lat="43.00947" lon="0.73325">
        <ele>711.5</ele>
        <time>2023-03-17T14:16:19.000Z</time>
      </trkpt>
      <trkpt lat="43.00956" lon="0.73327">
        <ele>709.4</ele>
        <time>2023-03-17T14:16:26.000Z</time>
      </trkpt>
      <trkpt lat="43.00964" lon="0.73334">
        <ele>707.9</ele>
        <time>2023-03-17T14:16:35.000Z</time>
      </trkpt>
      <trkpt lat="43.00973" lon="0.73339">
        <ele>705.8</ele>
        <time>2023-03-17T14:16:41.000Z</time>
      </trkpt>
      <trkpt lat="43.0098" lon="0.73348">
        <ele>704.1</ele>
        <time>2023-03-17T14:16:47.000Z</time>
      </trkpt>
      <trkpt lat="43.00988" lon="0.73354">
        <ele>702.2</ele>
        <time>2023-03-17T14:16:54.000Z</time>
      </trkpt>
      <trkpt lat="43.00996" lon="0.73363">
        <ele>701</ele>
        <time>2023-03-17T14:17:03.000Z</time>
      </trkpt>
      <trkpt lat="43.01" lon="0.73378">
        <ele>700.6</ele>
        <time>2023-03-17T14:17:10.000Z</time>
      </trkpt>
      <trkpt lat="43.01002" lon="0.73391">
        <ele>700.6</ele>
        <time>2023-03-17T14:17:15.000Z</time>
      </trkpt>
      <trkpt lat="43.01003" lon="0.73405">
        <ele>700.9</ele>
        <time>2023-03-17T14:17:21.000Z</time>
      </trkpt>
      <trkpt lat="43.01005" lon="0.73418">
        <ele>701.2</ele>
        <time>2023-03-17T14:17:26.000Z</time>
      </trkpt>
      <trkpt lat="43.01005" lon="0.73432">
        <ele>701.8</ele>
        <time>2023-03-17T14:17:33.000Z</time>
      </trkpt>
      <trkpt lat="43.01003" lon="0.73444">
        <ele>702.5</ele>
        <time>2023-03-17T14:17:39.000Z</time>
      </trkpt>
      <trkpt lat="43.01" lon="0.73456">
        <ele>703</ele>
        <time>2023-03-17T14:17:46.000Z</time>
      </trkpt>
      <trkpt lat="43.01" lon="0.7347">
        <ele>703</ele>
        <time>2023-03-17T14:17:54.000Z</time>
      </trkpt>
      <trkpt lat="43.00999" lon="0.73482">
        <ele>703.2</ele>
        <time>2023-03-17T14:18:02.000Z</time>
      </trkpt>
      <trkpt lat="43.00998" lon="0.73496">
        <ele>703.4</ele>
        <time>2023-03-17T14:18:10.000Z</time>
      </trkpt>
      <trkpt lat="43.00994" lon="0.73508">
        <ele>703.8</ele>
        <time>2023-03-17T14:18:18.000Z</time>
      </trkpt>
      <trkpt lat="43.00993" lon="0.73522">
        <ele>704</ele>
        <time>2023-03-17T14:18:25.000Z</time>
      </trkpt>
      <trkpt lat="43.00994" lon="0.73536">
        <ele>703.9</ele>
        <time>2023-03-17T14:18:31.000Z</time>
      </trkpt>
      <trkpt lat="43.00996" lon="0.73549">
        <ele>703.9</ele>
        <time>2023-03-17T14:18:39.000Z</time>
      </trkpt>
      <trkpt lat="43.00997" lon="0.73562">
        <ele>703.8</ele>
        <time>2023-03-17T14:18:48.000Z</time>
      </trkpt>
      <trkpt lat="43.01002" lon="0.73574">
        <ele>703.1</ele>
        <time>2023-03-17T14:18:57.000Z</time>
      </trkpt>
      <trkpt lat="43.01007" lon="0.73584">
        <ele>702.2</ele>
        <time>2023-03-17T14:19:05.000Z</time>
      </trkpt>
      <trkpt lat="43.0101" lon="0.73596">
        <ele>701.3</ele>
        <time>2023-03-17T14:19:14.000Z</time>
      </trkpt>
      <trkpt lat="43.01012" lon="0.73609">
        <ele>700.7</ele>
        <time>2023-03-17T14:19:22.000Z</time>
      </trkpt>
      <trkpt lat="43.01012" lon="0.73622">
        <ele>700.2</ele>
        <time>2023-03-17T14:19:29.000Z</time>
      </trkpt>
      <trkpt lat="43.01011" lon="0.73636">
        <ele>699.9</ele>
        <time>2023-03-17T14:19:36.000Z</time>
      </trkpt>
      <trkpt lat="43.01012" lon="0.73649">
        <ele>698.9</ele>
        <time>2023-03-17T14:19:44.000Z</time>
      </trkpt>
      <trkpt lat="43.0101" lon="0.73663">
        <ele>698.5</ele>
        <time>2023-03-17T14:19:52.000Z</time>
      </trkpt>
      <trkpt lat="43.01009" lon="0.73676">
        <ele>697.3</ele>
        <time>2023-03-17T14:20:00.000Z</time>
      </trkpt>
      <trkpt lat="43.01009" lon="0.73688">
        <ele>696</ele>
        <time>2023-03-17T14:20:07.000Z</time>
      </trkpt>
      <trkpt lat="43.01007" lon="0.73701">
        <ele>694.6</ele>
        <time>2023-03-17T14:20:15.000Z</time>
      </trkpt>
      <trkpt lat="43.01006" lon="0.73714">
        <ele>692.9</ele>
        <time>2023-03-17T14:20:24.000Z</time>
      </trkpt>
      <trkpt lat="43.01004" lon="0.73727">
        <ele>691.5</ele>
        <time>2023-03-17T14:20:31.000Z</time>
      </trkpt>
      <trkpt lat="43.01003" lon="0.7374">
        <ele>689.2</ele>
        <time>2023-03-17T14:20:39.000Z</time>
      </trkpt>
      <trkpt lat="43.01001" lon="0.73753">
        <ele>687.3</ele>
        <time>2023-03-17T14:20:48.000Z</time>
      </trkpt>
      <trkpt lat="43.00998" lon="0.73765">
        <ele>686.2</ele>
        <time>2023-03-17T14:20:55.000Z</time>
      </trkpt>
      <trkpt lat="43.00994" lon="0.73778">
        <ele>685.6</ele>
        <time>2023-03-17T14:21:02.000Z</time>
      </trkpt>
      <trkpt lat="43.0099" lon="0.73791">
        <ele>685.5</ele>
        <time>2023-03-17T14:21:08.000Z</time>
      </trkpt>
      <trkpt lat="43.00988" lon="0.73803">
        <ele>684.5</ele>
        <time>2023-03-17T14:21:14.000Z</time>
      </trkpt>
      <trkpt lat="43.00987" lon="0.73815">
        <ele>683.5</ele>
        <time>2023-03-17T14:21:22.000Z</time>
      </trkpt>
      <trkpt lat="43.00983" lon="0.73828">
        <ele>683.9</ele>
        <time>2023-03-17T14:21:30.000Z</time>
      </trkpt>
      <trkpt lat="43.00979" lon="0.73841">
        <ele>683.9</ele>
        <time>2023-03-17T14:21:38.000Z</time>
      </trkpt>
      <trkpt lat="43.00974" lon="0.73851">
        <ele>685.4</ele>
        <time>2023-03-17T14:21:47.000Z</time>
      </trkpt>
      <trkpt lat="43.00965" lon="0.73857">
        <ele>688.4</ele>
        <time>2023-03-17T14:21:57.000Z</time>
      </trkpt>
      <trkpt lat="43.00957" lon="0.73862">
        <ele>691.5</ele>
        <time>2023-03-17T14:22:06.000Z</time>
      </trkpt>
      <trkpt lat="43.00949" lon="0.73869">
        <ele>694.1</ele>
        <time>2023-03-17T14:22:18.000Z</time>
      </trkpt>
      <trkpt lat="43.0094" lon="0.73873">
        <ele>696.7</ele>
        <time>2023-03-17T14:22:29.000Z</time>
      </trkpt>
      <trkpt lat="43.0093" lon="0.73874">
        <ele>699.3</ele>
        <time>2023-03-17T14:22:38.000Z</time>
      </trkpt>
      <trkpt lat="43.00921" lon="0.7388">
        <ele>701</ele>
        <time>2023-03-17T14:22:46.000Z</time>
      </trkpt>
      <trkpt lat="43.00912" lon="0.73883">
        <ele>702.8</ele>
        <time>2023-03-17T14:22:58.000Z</time>
      </trkpt>
      <trkpt lat="43.00901" lon="0.73883">
        <ele>704.6</ele>
        <time>2023-03-17T14:23:05.000Z</time>
      </trkpt>
      <trkpt lat="43.00893" lon="0.73887">
        <ele>705.6</ele>
        <time>2023-03-17T14:23:15.000Z</time>
      </trkpt>
      <trkpt lat="43.00887" lon="0.73897">
        <ele>705.6</ele>
        <time>2023-03-17T14:23:31.000Z</time>
      </trkpt>
      <trkpt lat="43.00883" lon="0.73909">
        <ele>705</ele>
        <time>2023-03-17T14:23:41.000Z</time>
      </trkpt>
      <trkpt lat="43.00873" lon="0.73912">
        <ele>705.5</ele>
        <time>2023-03-17T14:23:48.000Z</time>
      </trkpt>
      <trkpt lat="43.00864" lon="0.73916">
        <ele>705.9</ele>
        <time>2023-03-17T14:23:55.000Z</time>
      </trkpt>
      <trkpt lat="43.00854" lon="0.73919">
        <ele>705.6</ele>
        <time>2023-03-17T14:24:05.000Z</time>
      </trkpt>
      <trkpt lat="43.00845" lon="0.73924">
        <ele>705.2</ele>
        <time>2023-03-17T14:24:17.000Z</time>
      </trkpt>
      <trkpt lat="43.00841" lon="0.73935">
        <ele>704.9</ele>
        <time>2023-03-17T14:24:30.000Z</time>
      </trkpt>
      <trkpt lat="43.00837" lon="0.73947">
        <ele>704.6</ele>
        <time>2023-03-17T14:24:40.000Z</time>
      </trkpt>
      <trkpt lat="43.0083" lon="0.73958">
        <ele>703.1</ele>
        <time>2023-03-17T14:24:48.000Z</time>
      </trkpt>
      <trkpt lat="43.00828" lon="0.7397">
        <ele>701.7</ele>
        <time>2023-03-17T14:24:58.000Z</time>
      </trkpt>
      <trkpt lat="43.00832" lon="0.73982">
        <ele>700.5</ele>
        <time>2023-03-17T14:25:10.000Z</time>
      </trkpt>
      <trkpt lat="43.00839" lon="0.7399">
        <ele>699</ele>
        <time>2023-03-17T14:25:23.000Z</time>
      </trkpt>
      <trkpt lat="43.00845" lon="0.74002">
        <ele>696.9</ele>
        <time>2023-03-17T14:25:32.000Z</time>
      </trkpt>
      <trkpt lat="43.00849" lon="0.74013">
        <ele>695</ele>
        <time>2023-03-17T14:25:38.000Z</time>
      </trkpt>
      <trkpt lat="43.00857" lon="0.74021">
        <ele>693.2</ele>
        <time>2023-03-17T14:25:46.000Z</time>
      </trkpt>
      <trkpt lat="43.00861" lon="0.74033">
        <ele>691</ele>
        <time>2023-03-17T14:25:55.000Z</time>
      </trkpt>
      <trkpt lat="43.00863" lon="0.74045">
        <ele>688.1</ele>
        <time>2023-03-17T14:26:02.000Z</time>
      </trkpt>
      <trkpt lat="43.00861" lon="0.74058">
        <ele>685.6</ele>
        <time>2023-03-17T14:26:10.000Z</time>
      </trkpt>
      <trkpt lat="43.00858" lon="0.7407">
        <ele>683.7</ele>
        <time>2023-03-17T14:26:19.000Z</time>
      </trkpt>
      <trkpt lat="43.00854" lon="0.74082">
        <ele>682</ele>
        <time>2023-03-17T14:26:27.000Z</time>
      </trkpt>
      <trkpt lat="43.0085" lon="0.74093">
        <ele>680.2</ele>
        <time>2023-03-17T14:26:35.000Z</time>
      </trkpt>
      <trkpt lat="43.00842" lon="0.74101">
        <ele>679.6</ele>
        <time>2023-03-17T14:26:43.000Z</time>
      </trkpt>
      <trkpt lat="43.00833" lon="0.74106">
        <ele>679.9</ele>
        <time>2023-03-17T14:26:50.000Z</time>
      </trkpt>
      <trkpt lat="43.00824" lon="0.74111">
        <ele>679</ele>
        <time>2023-03-17T14:26:57.000Z</time>
      </trkpt>
      <trkpt lat="43.00815" lon="0.74117">
        <ele>677.8</ele>
        <time>2023-03-17T14:27:06.000Z</time>
      </trkpt>
      <trkpt lat="43.00809" lon="0.74127">
        <ele>676</ele>
        <time>2023-03-17T14:27:14.000Z</time>
      </trkpt>
      <trkpt lat="43.00803" lon="0.74137">
        <ele>674</ele>
        <time>2023-03-17T14:27:24.000Z</time>
      </trkpt>
      <trkpt lat="43.00796" lon="0.74147">
        <ele>671.3</ele>
        <time>2023-03-17T14:27:33.000Z</time>
      </trkpt>
      <trkpt lat="43.00789" lon="0.74156">
        <ele>668.5</ele>
        <time>2023-03-17T14:27:41.000Z</time>
      </trkpt>
      <trkpt lat="43.00793" lon="0.74167">
        <ele>666.5</ele>
        <time>2023-03-17T14:27:54.000Z</time>
      </trkpt>
      <trkpt lat="43.00801" lon="0.74174">
        <ele>665.9</ele>
        <time>2023-03-17T14:28:06.000Z</time>
      </trkpt>
      <trkpt lat="43.00811" lon="0.74178">
        <ele>665.6</ele>
        <time>2023-03-17T14:28:18.000Z</time>
      </trkpt>
      <trkpt lat="43.00819" lon="0.74179">
        <ele>665.4</ele>
        <time>2023-03-17T14:28:27.000Z</time>
      </trkpt>
      <trkpt lat="43.00829" lon="0.74182">
        <ele>664.7</ele>
        <time>2023-03-17T14:28:36.000Z</time>
      </trkpt>
      <trkpt lat="43.00838" lon="0.74184">
        <ele>663.7</ele>
        <time>2023-03-17T14:28:44.000Z</time>
      </trkpt>
      <trkpt lat="43.00848" lon="0.74181">
        <ele>663.2</ele>
        <time>2023-03-17T14:28:52.000Z</time>
      </trkpt>
      <trkpt lat="43.00856" lon="0.74176">
        <ele>662.9</ele>
        <time>2023-03-17T14:29:02.000Z</time>
      </trkpt>
      <trkpt lat="43.00866" lon="0.7417">
        <ele>662.7</ele>
        <time>2023-03-17T14:29:12.000Z</time>
      </trkpt>
      <trkpt lat="43.00875" lon="0.74167">
        <ele>661.9</ele>
        <time>2023-03-17T14:29:19.000Z</time>
      </trkpt>
      <trkpt lat="43.00885" lon="0.74168">
        <ele>660.5</ele>
        <time>2023-03-17T14:29:25.000Z</time>
      </trkpt>
      <trkpt lat="43.00892" lon="0.74177">
        <ele>658.3</ele>
        <time>2023-03-17T14:29:32.000Z</time>
      </trkpt>
      <trkpt lat="43.00896" lon="0.74189">
        <ele>656</ele>
        <time>2023-03-17T14:29:40.000Z</time>
      </trkpt>
      <trkpt lat="43.00898" lon="0.74201">
        <ele>654.2</ele>
        <time>2023-03-17T14:29:45.000Z</time>
      </trkpt>
      <trkpt lat="43.009" lon="0.74213">
        <ele>652.4</ele>
        <time>2023-03-17T14:29:53.000Z</time>
      </trkpt>
      <trkpt lat="43.009" lon="0.74226">
        <ele>650.7</ele>
        <time>2023-03-17T14:30:02.000Z</time>
      </trkpt>
      <trkpt lat="43.00899" lon="0.74239">
        <ele>648.9</ele>
        <time>2023-03-17T14:30:15.000Z</time>
      </trkpt>
      <trkpt lat="43.00895" lon="0.74247">
        <ele>648.1</ele>
        <time>2023-03-17T14:30:25.000Z</time>
      </trkpt>
      <trkpt lat="43.00893" lon="0.74246">
        <ele>648.3</ele>
        <time>2023-03-17T14:31:04.000Z</time>
      </trkpt>
      <trkpt lat="43.00888" lon="0.74257">
        <ele>647</ele>
        <time>2023-03-17T14:31:16.000Z</time>
      </trkpt>
      <trkpt lat="43.00884" lon="0.74256">
        <ele>647.5</ele>
        <time>2023-03-17T14:31:28.000Z</time>
      </trkpt>
      <trkpt lat="43.00883" lon="0.74257">
        <ele>647.4</ele>
        <time>2023-03-17T14:31:29.000Z</time>
      </trkpt>
      <trkpt lat="43.00882" lon="0.74269">
        <ele>645.4</ele>
        <time>2023-03-17T14:31:38.000Z</time>
      </trkpt>
      <trkpt lat="43.00878" lon="0.74282">
        <ele>643.1</ele>
        <time>2023-03-17T14:31:47.000Z</time>
      </trkpt>
      <trkpt lat="43.00873" lon="0.74293">
        <ele>641</ele>
        <time>2023-03-17T14:31:54.000Z</time>
      </trkpt>
      <trkpt lat="43.00869" lon="0.74304">
        <ele>639</ele>
        <time>2023-03-17T14:32:01.000Z</time>
      </trkpt>
      <trkpt lat="43.00862" lon="0.74313">
        <ele>637.1</ele>
        <time>2023-03-17T14:32:16.000Z</time>
      </trkpt>
      <trkpt lat="43.00858" lon="0.74324">
        <ele>634.3</ele>
        <time>2023-03-17T14:32:25.000Z</time>
      </trkpt>
      <trkpt lat="43.00854" lon="0.74335">
        <ele>631.5</ele>
        <time>2023-03-17T14:32:35.000Z</time>
      </trkpt>
      <trkpt lat="43.0085" lon="0.74347">
        <ele>628.7</ele>
        <time>2023-03-17T14:32:45.000Z</time>
      </trkpt>
      <trkpt lat="43.00852" lon="0.74359">
        <ele>625.9</ele>
        <time>2023-03-17T14:32:57.000Z</time>
      </trkpt>
      <trkpt lat="43.00853" lon="0.74371">
        <ele>622.9</ele>
        <time>2023-03-17T14:33:07.000Z</time>
      </trkpt>
      <trkpt lat="43.00855" lon="0.74384">
        <ele>619.9</ele>
        <time>2023-03-17T14:33:17.000Z</time>
      </trkpt>
      <trkpt lat="43.00857" lon="0.74396">
        <ele>616.9</ele>
        <time>2023-03-17T14:33:27.000Z</time>
      </trkpt>
      <trkpt lat="43.00864" lon="0.74406">
        <ele>614.7</ele>
        <time>2023-03-17T14:33:38.000Z</time>
      </trkpt>
      <trkpt lat="43.0087" lon="0.74416">
        <ele>612.3</ele>
        <time>2023-03-17T14:33:46.000Z</time>
      </trkpt>
      <trkpt lat="43.00876" lon="0.74425">
        <ele>609.9</ele>
        <time>2023-03-17T14:34:05.000Z</time>
      </trkpt>
      <trkpt lat="43.00882" lon="0.74434">
        <ele>607.5</ele>
        <time>2023-03-17T14:34:17.000Z</time>
      </trkpt>
      <trkpt lat="43.00889" lon="0.74445">
        <ele>604.8</ele>
        <time>2023-03-17T14:34:25.000Z</time>
      </trkpt>
      <trkpt lat="43.00896" lon="0.74453">
        <ele>601.9</ele>
        <time>2023-03-17T14:34:38.000Z</time>
      </trkpt>
      <trkpt lat="43.00896" lon="0.74453">
        <ele>601.9</ele>
        <time>2023-03-17T14:34:39.000Z</time>
      </trkpt>
      <trkpt lat="43.00897" lon="0.74455">
        <ele>601.1</ele>
        <time>2023-03-17T14:35:07.000Z</time>
      </trkpt>
      <trkpt lat="43.00906" lon="0.7446">
        <ele>598.9</ele>
        <time>2023-03-17T14:35:21.000Z</time>
      </trkpt>
      <trkpt lat="43.00913" lon="0.74468">
        <ele>596.4</ele>
        <time>2023-03-17T14:35:29.000Z</time>
      </trkpt>
      <trkpt lat="43.00918" lon="0.74478">
        <ele>593.3</ele>
        <time>2023-03-17T14:35:36.000Z</time>
      </trkpt>
      <trkpt lat="43.00918" lon="0.74493">
        <ele>589.7</ele>
        <time>2023-03-17T14:35:44.000Z</time>
      </trkpt>
      <trkpt lat="43.00917" lon="0.74506">
        <ele>586.2</ele>
        <time>2023-03-17T14:35:52.000Z</time>
      </trkpt>
      <trkpt lat="43.00913" lon="0.74517">
        <ele>583.4</ele>
        <time>2023-03-17T14:36:00.000Z</time>
      </trkpt>
      <trkpt lat="43.00906" lon="0.74526">
        <ele>581.4</ele>
        <time>2023-03-17T14:36:09.000Z</time>
      </trkpt>
      <trkpt lat="43.00898" lon="0.74535">
        <ele>579.5</ele>
        <time>2023-03-17T14:36:16.000Z</time>
      </trkpt>
      <trkpt lat="43.0089" lon="0.7454">
        <ele>578.8</ele>
        <time>2023-03-17T14:36:22.000Z</time>
      </trkpt>
      <trkpt lat="43.00881" lon="0.74544">
        <ele>577.8</ele>
        <time>2023-03-17T14:36:32.000Z</time>
      </trkpt>
      <trkpt lat="43.00872" lon="0.74549">
        <ele>576.8</ele>
        <time>2023-03-17T14:36:39.000Z</time>
      </trkpt>
      <trkpt lat="43.00864" lon="0.74555">
        <ele>575.2</ele>
        <time>2023-03-17T14:36:45.000Z</time>
      </trkpt>
      <trkpt lat="43.00855" lon="0.74562">
        <ele>572.9</ele>
        <time>2023-03-17T14:36:55.000Z</time>
      </trkpt>
      <trkpt lat="43.00847" lon="0.74567">
        <ele>570.8</ele>
        <time>2023-03-17T14:37:02.000Z</time>
      </trkpt>
      <trkpt lat="43.00838" lon="0.7457">
        <ele>569.2</ele>
        <time>2023-03-17T14:37:08.000Z</time>
      </trkpt>
      <trkpt lat="43.0083" lon="0.74577">
        <ele>566.4</ele>
        <time>2023-03-17T14:37:17.000Z</time>
      </trkpt>
      <trkpt lat="43.00821" lon="0.74581">
        <ele>564.4</ele>
        <time>2023-03-17T14:37:25.000Z</time>
      </trkpt>
      <trkpt lat="43.00811" lon="0.74586">
        <ele>561.8</ele>
        <time>2023-03-17T14:37:32.000Z</time>
      </trkpt>
      <trkpt lat="43.00803" lon="0.7459">
        <ele>559.4</ele>
        <time>2023-03-17T14:37:41.000Z</time>
      </trkpt>
      <trkpt lat="43.008" lon="0.74589">
        <ele>559.3</ele>
        <time>2023-03-17T14:37:46.000Z</time>
      </trkpt>
      <trkpt lat="43.008" lon="0.74589">
        <ele>559.4</ele>
        <time>2023-03-17T14:37:47.000Z</time>
      </trkpt>
      <trkpt lat="43.00799" lon="0.74588">
        <ele>559.4</ele>
        <time>2023-03-17T14:37:50.000Z</time>
      </trkpt>
      <trkpt lat="43.00798" lon="0.74588">
        <ele>559.2</ele>
        <time>2023-03-17T14:38:02.000Z</time>
      </trkpt>
      <trkpt lat="43.00789" lon="0.74591">
        <ele>557</ele>
        <time>2023-03-17T14:38:14.000Z</time>
      </trkpt>
      <trkpt lat="43.0078" lon="0.74593">
        <ele>554.5</ele>
        <time>2023-03-17T14:38:24.000Z</time>
      </trkpt>
      <trkpt lat="43.0077" lon="0.74596">
        <ele>551.9</ele>
        <time>2023-03-17T14:38:30.000Z</time>
      </trkpt>
      <trkpt lat="43.00761" lon="0.74594">
        <ele>551</ele>
        <time>2023-03-17T14:38:35.000Z</time>
      </trkpt>
      <trkpt lat="43.00752" lon="0.7459">
        <ele>550.5</ele>
        <time>2023-03-17T14:38:42.000Z</time>
      </trkpt>
      <trkpt lat="43.00746" lon="0.7459">
        <ele>549.5</ele>
        <time>2023-03-17T14:38:51.000Z</time>
      </trkpt>
      <trkpt lat="43.00746" lon="0.74589">
        <ele>549.5</ele>
        <time>2023-03-17T14:38:52.000Z</time>
      </trkpt>
      <trkpt lat="43.00746" lon="0.74589">
        <ele>549.5</ele>
        <time>2023-03-17T14:38:53.000Z</time>
      </trkpt>
      <trkpt lat="43.00746" lon="0.7459">
        <ele>549.5</ele>
        <time>2023-03-17T14:38:54.000Z</time>
      </trkpt>
      <trkpt lat="43.00746" lon="0.7459">
        <ele>549.3</ele>
        <time>2023-03-17T14:38:57.000Z</time>
      </trkpt>
      <trkpt lat="43.00745" lon="0.74591">
        <ele>548.9</ele>
        <time>2023-03-17T14:39:03.000Z</time>
      </trkpt>
      <trkpt lat="43.00735" lon="0.74588">
        <ele>547.9</ele>
        <time>2023-03-17T14:39:13.000Z</time>
      </trkpt>
      <trkpt lat="43.00727" lon="0.74581">
        <ele>548.4</ele>
        <time>2023-03-17T14:39:21.000Z</time>
      </trkpt>
      <trkpt lat="43.0072" lon="0.74572">
        <ele>549.5</ele>
        <time>2023-03-17T14:39:28.000Z</time>
      </trkpt>
      <trkpt lat="43.00712" lon="0.74564">
        <ele>550.4</ele>
        <time>2023-03-17T14:39:36.000Z</time>
      </trkpt>
      <trkpt lat="43.00705" lon="0.74561">
        <ele>550.2</ele>
        <time>2023-03-17T14:39:47.000Z</time>
      </trkpt>
      <trkpt lat="43.00704" lon="0.74561">
        <ele>550.2</ele>
        <time>2023-03-17T14:39:48.000Z</time>
      </trkpt>
      <trkpt lat="43.00696" lon="0.74557">
        <ele>549.8</ele>
        <time>2023-03-17T14:39:59.000Z</time>
      </trkpt>
      <trkpt lat="43.00686" lon="0.74557">
        <ele>549.1</ele>
        <time>2023-03-17T14:40:07.000Z</time>
      </trkpt>
      <trkpt lat="43.00676" lon="0.74556">
        <ele>548.6</ele>
        <time>2023-03-17T14:40:14.000Z</time>
      </trkpt>
      <trkpt lat="43.00667" lon="0.74552">
        <ele>548.7</ele>
        <time>2023-03-17T14:40:23.000Z</time>
      </trkpt>
      <trkpt lat="43.00657" lon="0.74552">
        <ele>549</ele>
        <time>2023-03-17T14:40:35.000Z</time>
      </trkpt>
      <trkpt lat="43.00647" lon="0.74554">
        <ele>549</ele>
        <time>2023-03-17T14:40:46.000Z</time>
      </trkpt>
      <trkpt lat="43.00638" lon="0.74556">
        <ele>549</ele>
        <time>2023-03-17T14:40:55.000Z</time>
      </trkpt>
      <trkpt lat="43.00629" lon="0.74559">
        <ele>549.5</ele>
        <time>2023-03-17T14:41:02.000Z</time>
      </trkpt>
      <trkpt lat="43.0062" lon="0.7456">
        <ele>550.3</ele>
        <time>2023-03-17T14:41:11.000Z</time>
      </trkpt>
      <trkpt lat="43.00611" lon="0.74559">
        <ele>551.5</ele>
        <time>2023-03-17T14:41:23.000Z</time>
      </trkpt>
      <trkpt lat="43.00603" lon="0.74552">
        <ele>554.1</ele>
        <time>2023-03-17T14:41:34.000Z</time>
      </trkpt>
      <trkpt lat="43.00594" lon="0.74547">
        <ele>556.7</ele>
        <time>2023-03-17T14:41:47.000Z</time>
      </trkpt>
      <trkpt lat="43.00585" lon="0.74545">
        <ele>558.6</ele>
        <time>2023-03-17T14:42:00.000Z</time>
      </trkpt>
      <trkpt lat="43.00578" lon="0.74536">
        <ele>561.6</ele>
        <time>2023-03-17T14:42:11.000Z</time>
      </trkpt>
      <trkpt lat="43.00579" lon="0.74521">
        <ele>563.8</ele>
        <time>2023-03-17T14:42:19.000Z</time>
      </trkpt>
      <trkpt lat="43.00583" lon="0.74509">
        <ele>564.7</ele>
        <time>2023-03-17T14:42:26.000Z</time>
      </trkpt>
      <trkpt lat="43.00589" lon="0.745">
        <ele>565</ele>
        <time>2023-03-17T14:42:35.000Z</time>
      </trkpt>
      <trkpt lat="43.00593" lon="0.74488">
        <ele>566</ele>
        <time>2023-03-17T14:42:45.000Z</time>
      </trkpt>
      <trkpt lat="43.00595" lon="0.74475">
        <ele>567.4</ele>
        <time>2023-03-17T14:42:57.000Z</time>
      </trkpt>
      <trkpt lat="43.0059" lon="0.74466">
        <ele>569.8</ele>
        <time>2023-03-17T14:43:11.000Z</time>
      </trkpt>
      <trkpt lat="43.00584" lon="0.74454">
        <ele>572.4</ele>
        <time>2023-03-17T14:43:23.000Z</time>
      </trkpt>
      <trkpt lat="43.00578" lon="0.74446">
        <ele>574.8</ele>
        <time>2023-03-17T14:43:36.000Z</time>
      </trkpt>
      <trkpt lat="43.00569" lon="0.74441">
        <ele>577</ele>
        <time>2023-03-17T14:43:50.000Z</time>
      </trkpt>
      <trkpt lat="43.00559" lon="0.74441">
        <ele>578.7</ele>
        <time>2023-03-17T14:43:59.000Z</time>
      </trkpt>
      <trkpt lat="43.0055" lon="0.74442">
        <ele>580.2</ele>
        <time>2023-03-17T14:44:13.000Z</time>
      </trkpt>
      <trkpt lat="43.00541" lon="0.7444">
        <ele>582.2</ele>
        <time>2023-03-17T14:44:25.000Z</time>
      </trkpt>
      <trkpt lat="43.00534" lon="0.74449">
        <ele>582.5</ele>
        <time>2023-03-17T14:44:39.000Z</time>
      </trkpt>
      <trkpt lat="43.00526" lon="0.74458">
        <ele>583</ele>
        <time>2023-03-17T14:44:47.000Z</time>
      </trkpt>
      <trkpt lat="43.00518" lon="0.74464">
        <ele>583.8</ele>
        <time>2023-03-17T14:44:57.000Z</time>
      </trkpt>
      <trkpt lat="43.0051" lon="0.7447">
        <ele>584.6</ele>
        <time>2023-03-17T14:45:04.000Z</time>
      </trkpt>
      <trkpt lat="43.005" lon="0.74475">
        <ele>585.6</ele>
        <time>2023-03-17T14:45:11.000Z</time>
      </trkpt>
      <trkpt lat="43.00492" lon="0.74479">
        <ele>586.8</ele>
        <time>2023-03-17T14:45:17.000Z</time>
      </trkpt>
      <trkpt lat="43.00483" lon="0.74486">
        <ele>587.9</ele>
        <time>2023-03-17T14:45:29.000Z</time>
      </trkpt>
      <trkpt lat="43.00473" lon="0.74491">
        <ele>589</ele>
        <time>2023-03-17T14:45:37.000Z</time>
      </trkpt>
      <trkpt lat="43.00465" lon="0.74497">
        <ele>589.8</ele>
        <time>2023-03-17T14:45:44.000Z</time>
      </trkpt>
      <trkpt lat="43.00456" lon="0.74502">
        <ele>590.7</ele>
        <time>2023-03-17T14:45:52.000Z</time>
      </trkpt>
      <trkpt lat="43.00447" lon="0.74505">
        <ele>592.2</ele>
        <time>2023-03-17T14:46:02.000Z</time>
      </trkpt>
      <trkpt lat="43.00437" lon="0.74508">
        <ele>594.3</ele>
        <time>2023-03-17T14:46:09.000Z</time>
      </trkpt>
      <trkpt lat="43.00428" lon="0.74512">
        <ele>596.2</ele>
        <time>2023-03-17T14:46:16.000Z</time>
      </trkpt>
      <trkpt lat="43.0042" lon="0.74516">
        <ele>598</ele>
        <time>2023-03-17T14:46:23.000Z</time>
      </trkpt>
      <trkpt lat="43.0041" lon="0.74519">
        <ele>599.9</ele>
        <time>2023-03-17T14:46:31.000Z</time>
      </trkpt>
      <trkpt lat="43.004" lon="0.74519">
        <ele>601.8</ele>
        <time>2023-03-17T14:46:39.000Z</time>
      </trkpt>
      <trkpt lat="43.00391" lon="0.74518">
        <ele>603.7</ele>
        <time>2023-03-17T14:46:46.000Z</time>
      </trkpt>
      <trkpt lat="43.00382" lon="0.74516">
        <ele>605.1</ele>
        <time>2023-03-17T14:46:54.000Z</time>
      </trkpt>
      <trkpt lat="43.00372" lon="0.74511">
        <ele>606.6</ele>
        <time>2023-03-17T14:47:03.000Z</time>
      </trkpt>
      <trkpt lat="43.00363" lon="0.74506">
        <ele>608.1</ele>
        <time>2023-03-17T14:47:10.000Z</time>
      </trkpt>
      <trkpt lat="43.00354" lon="0.745">
        <ele>609.5</ele>
        <time>2023-03-17T14:47:17.000Z</time>
        <extensions>
          <visugpx:TrkExtension xmlns:visugpx="https://www.visugpx.com/editgpx/">
            <visugpx:node>6</visugpx:node>
            </visugpx:TrkExtension>
        </extensions>
      </trkpt>
      <trkpt lat="43.00354" lon="0.74484">
        <ele>611.2</ele>
      </trkpt>
      <trkpt lat="43.00346" lon="0.74478">
        <ele>612.5</ele>
      </trkpt>
      <trkpt lat="43.00337" lon="0.74471">
        <ele>613.9</ele>
      </trkpt>
      <trkpt lat="43.00321" lon="0.74464">
        <ele>614.9</ele>
      </trkpt>
      <trkpt lat="43.00319" lon="0.74467">
        <ele>614.6</ele>
      </trkpt>
      <trkpt lat="43.00311" lon="0.74474">
        <ele>613.8</ele>
      </trkpt>
      <trkpt lat="43.00306" lon="0.7448">
        <ele>612.9</ele>
      </trkpt>
      <trkpt lat="43.003" lon="0.74486">
        <ele>611.6</ele>
      </trkpt>
      <trkpt lat="43.00296" lon="0.74494">
        <ele>610.4</ele>
      </trkpt>
      <trkpt lat="43.0029" lon="0.74499">
        <ele>609.5</ele>
      </trkpt>
      <trkpt lat="43.00283" lon="0.74501">
        <ele>609.1</ele>
      </trkpt>
      <trkpt lat="43.00272" lon="0.74504">
        <ele>607.2</ele>
      </trkpt>
      <trkpt lat="43.00261" lon="0.74505">
        <ele>604.8</ele>
      </trkpt>
      <trkpt lat="43.00248" lon="0.74506">
        <ele>601.8</ele>
      </trkpt>
      <trkpt lat="43.0024" lon="0.74506">
        <ele>599.8</ele>
      </trkpt>
      <trkpt lat="43.00234" lon="0.74503">
        <ele>598.6</ele>
      </trkpt>
      <trkpt lat="43.00229" lon="0.74498">
        <ele>598</ele>
      </trkpt>
      <trkpt lat="43.00221" lon="0.7449">
        <ele>597.6</ele>
      </trkpt>
      <trkpt lat="43.00216" lon="0.74485">
        <ele>597.7</ele>
      </trkpt>
      <trkpt lat="43.0021" lon="0.74482">
        <ele>597.5</ele>
      </trkpt>
      <trkpt lat="43.00198" lon="0.74477">
        <ele>597.1</ele>
      </trkpt>
      <trkpt lat="43.00187" lon="0.74474">
        <ele>597.8</ele>
      </trkpt>
      <trkpt lat="43.0018" lon="0.74474">
        <ele>598</ele>
      </trkpt>
      <trkpt lat="43.00175" lon="0.74476">
        <ele>597.7</ele>
      </trkpt>
      <trkpt lat="43.00173" lon="0.74477">
        <ele>597.5</ele>
      </trkpt>
      <trkpt lat="43.00166" lon="0.74481">
        <ele>596.9</ele>
      </trkpt>
      <trkpt lat="43.0016" lon="0.74487">
        <ele>596.7</ele>
      </trkpt>
      <trkpt lat="43.00134" lon="0.74504">
        <ele>599.2</ele>
      </trkpt>
      <trkpt lat="43.00124" lon="0.7451">
        <ele>600.5</ele>
      </trkpt>
      <trkpt lat="43.00112" lon="0.74516">
        <ele>602.6</ele>
      </trkpt>
      <trkpt lat="43.001" lon="0.74524">
        <ele>603.5</ele>
      </trkpt>
      <trkpt lat="43.00093" lon="0.7453">
        <ele>603.8</ele>
      </trkpt>
      <trkpt lat="43.00082" lon="0.74537">
        <ele>604.4</ele>
      </trkpt>
      <trkpt lat="43.00079" lon="0.74538">
        <ele>604.3</ele>
        <extensions>
          <visugpx:TrkExtension xmlns:visugpx="https://www.visugpx.com/editgpx/">
            <visugpx:node>7</visugpx:node>
            </visugpx:TrkExtension>
        </extensions>
      </trkpt>
    </trkseg>
  </trk>
</gpx>